PWSweather.com
Personal Weather Stations
Station Observations
JAMES
NorthumberlandGB

NorthumberlandGB

Lat: 55.5507124, Lon: -2.0172811

Elevation: 362

Station Type:

High Low Average
Temperature 46.0°F7.8°C 36.5°F2.5°C 42.0°F5.6°C
Dew Point 36.7°F2.6°C 30.4°F-0.9°C 33.4°F0.8°C
Winds 21.3 mph 34.3 kmh Calm Calm 9.0 mph S14.5 kmh S
Wind Gusts 35.8 mph57.6 kmh 8.3 mph13.4 kmh 25.0 mph40.2 kmh
Humidity 88% 63% 71%
Pressure 29.92 in1013.2 mb 29.04 in983.4 mb -
Precipitation 0.15 in3.8 mm - -
Hour Temp Dew Point Humidity Winds Wind Gusts Pressure Precip Precip Rate Daily Precip Total
08:52 AM 46.0°F7.8°C 33.9°F1.1°C 63% 9.8 mph SE15.8 kmh SE 27.3 mph43.9 kmh 29.26 in990.9 mb 0.00 in0.0 mm 0.00 in/hr0.0 mm/hr 0.13 in3.3 mm
08:53 AM 46.0°F7.8°C 33.9°F1.1°C 63% 10.7 mph SSW17.2 kmh SSW 27.3 mph43.9 kmh 29.26 in990.9 mb 0.00 in0.0 mm 0.00 in/hr0.0 mm/hr 0.13 in3.3 mm
08:54 AM 46.0°F7.8°C 33.9°F1.1°C 63% 9.2 mph S14.8 kmh S 27.3 mph43.9 kmh 29.26 in990.9 mb 0.00 in0.0 mm 0.00 in/hr0.0 mm/hr 0.13 in3.3 mm
08:55 AM 46.0°F7.8°C 34.3°F1.3°C 64% 7.6 mph SW12.2 kmh SW 27.3 mph43.9 kmh 29.26 in990.9 mb 0.00 in0.0 mm 0.00 in/hr0.0 mm/hr 0.13 in3.3 mm
08:56 AM 46.0°F7.8°C 34.3°F1.3°C 64% 9.2 mph SSE14.8 kmh SSE 21.3 mph34.3 kmh 29.26 in990.9 mb 0.00 in0.0 mm 0.00 in/hr0.0 mm/hr 0.13 in3.3 mm
08:57 AM 46.0°F7.8°C 34.3°F1.3°C 64% 4.5 mph SSE7.2 kmh SSE 21.3 mph34.3 kmh 29.25 in990.5 mb 0.00 in0.0 mm 0.00 in/hr0.0 mm/hr 0.13 in3.3 mm
08:58 AM 46.0°F7.8°C 34.3°F1.3°C 64% 4.5 mph S7.2 kmh S 21.3 mph34.3 kmh 29.26 in990.9 mb 0.00 in0.0 mm 0.00 in/hr0.0 mm/hr 0.13 in3.3 mm
08:59 AM 45.9°F7.7°C 34.1°F1.2°C 64% 9.8 mph SSW15.8 kmh SSW 21.3 mph34.3 kmh 29.25 in990.5 mb 0.00 in0.0 mm 0.00 in/hr0.0 mm/hr 0.13 in3.3 mm
09:00 AM 45.9°F7.7°C 33.7°F0.9°C 63% 10.7 mph SW17.2 kmh SW 21.3 mph34.3 kmh 29.25 in990.5 mb 0.00 in0.0 mm 0.00 in/hr0.0 mm/hr 0.13 in3.3 mm
09:01 AM 45.9°F7.7°C 34.1°F1.2°C 64% 8.3 mph SW13.4 kmh SW 21.3 mph34.3 kmh 29.25 in990.5 mb 0.00 in0.0 mm 0.00 in/hr0.0 mm/hr 0.13 in3.3 mm
09:02 AM 45.9°F7.7°C 33.7°F0.9°C 63% 12.1 mph SW19.5 kmh SW 25.9 mph41.7 kmh 29.25 in990.5 mb 0.00 in0.0 mm 0.00 in/hr0.0 mm/hr 0.13 in3.3 mm
09:03 AM 45.9°F7.7°C 33.7°F0.9°C 63% 8.3 mph SW13.4 kmh SW 25.9 mph41.7 kmh 29.26 in990.9 mb 0.00 in0.0 mm 0.00 in/hr0.0 mm/hr 0.13 in3.3 mm
09:04 AM 45.9°F7.7°C 33.7°F0.9°C 63% 9.8 mph SW15.8 kmh SW 25.9 mph41.7 kmh 29.25 in990.5 mb 0.00 in0.0 mm 0.00 in/hr0.0 mm/hr 0.13 in3.3 mm
09:05 AM 45.9°F7.7°C 33.7°F0.9°C 63% 6.0 mph SW9.7 kmh SW 25.9 mph41.7 kmh 29.26 in990.9 mb 0.00 in0.0 mm 0.00 in/hr0.0 mm/hr 0.13 in3.3 mm
09:06 AM 45.9°F7.7°C 34.1°F1.2°C 64% 3.8 mph SW6.1 kmh SW 25.9 mph41.7 kmh 29.26 in990.9 mb 0.00 in0.0 mm 0.00 in/hr0.0 mm/hr 0.13 in3.3 mm
09:07 AM 45.9°F7.7°C 34.1°F1.2°C 64% 9.2 mph SW14.8 kmh SW 25.9 mph41.7 kmh 29.26 in990.9 mb 0.00 in0.0 mm 0.00 in/hr0.0 mm/hr 0.13 in3.3 mm
09:08 AM 45.9°F7.7°C 34.1°F1.2°C 64% 11.4 mph SSW18.3 kmh SSW 25.9 mph41.7 kmh 29.26 in990.9 mb 0.00 in0.0 mm 0.00 in/hr0.0 mm/hr 0.13 in3.3 mm
09:09 AM 45.9°F7.7°C 34.5°F1.4°C 65% 10.7 mph S17.2 kmh S 26.6 mph42.8 kmh 29.27 in991.2 mb 0.00 in0.0 mm 0.00 in/hr0.0 mm/hr 0.13 in3.3 mm
09:10 AM 45.9°F7.7°C 34.9°F1.6°C 66% 12.1 mph S19.5 kmh S 26.6 mph42.8 kmh 29.26 in990.9 mb 0.00 in0.0 mm 0.00 in/hr0.0 mm/hr 0.13 in3.3 mm
09:11 AM 46.0°F7.8°C 35.5°F1.9°C 67% 8.3 mph S13.4 kmh S 32.0 mph51.5 kmh 29.26 in990.9 mb 0.00 in0.0 mm 0.00 in/hr0.0 mm/hr 0.13 in3.3 mm
09:12 AM 45.5°F7.5°C 35.4°F1.9°C 68% 9.8 mph S15.8 kmh S 32.0 mph51.5 kmh 29.27 in991.2 mb 0.00 in0.0 mm 0.00 in/hr0.0 mm/hr 0.13 in3.3 mm
09:13 AM 45.3°F7.4°C 35.2°F1.8°C 68% 13.6 mph S21.9 kmh S 32.0 mph51.5 kmh 29.26 in990.9 mb 0.00 in0.0 mm 0.00 in/hr0.0 mm/hr 0.13 in3.3 mm
09:14 AM 45.3°F7.4°C 35.2°F1.8°C 68% 9.2 mph S14.8 kmh S 32.0 mph51.5 kmh 29.26 in990.9 mb 0.00 in0.0 mm 0.00 in/hr0.0 mm/hr 0.13 in3.3 mm
09:15 AM 45.1°F7.3°C 35.4°F1.9°C 69% 5.4 mph S8.7 kmh S 32.0 mph51.5 kmh 29.26 in990.9 mb 0.00 in0.0 mm 0.00 in/hr0.0 mm/hr 0.13 in3.3 mm
09:16 AM 45.0°F7.2°C 35.6°F2.0°C 70% 9.8 mph S15.8 kmh S 32.0 mph51.5 kmh 29.25 in990.5 mb 0.00 in0.0 mm 0.00 in/hr0.0 mm/hr 0.13 in3.3 mm
09:17 AM 45.0°F7.2°C 35.6°F2.0°C 70% 12.1 mph S19.5 kmh S 32.0 mph51.5 kmh 29.26 in990.9 mb 0.00 in0.0 mm 0.00 in/hr0.0 mm/hr 0.13 in3.3 mm
09:18 AM 45.0°F7.2°C 36.0°F2.2°C 71% 6.0 mph SSW9.7 kmh SSW 32.0 mph51.5 kmh 29.26 in990.9 mb 0.00 in0.0 mm 0.00 in/hr0.0 mm/hr 0.13 in3.3 mm
09:19 AM 44.6°F7.0°C 35.7°F2.1°C 71% 8.3 mph SSW13.4 kmh SSW 32.0 mph51.5 kmh 29.25 in990.5 mb 0.00 in0.0 mm 0.00 in/hr0.0 mm/hr 0.13 in3.3 mm
09:20 AM 44.6°F7.0°C 35.7°F2.1°C 71% 7.6 mph S12.2 kmh S 32.0 mph51.5 kmh 29.26 in990.9 mb 0.00 in0.0 mm 0.00 in/hr0.0 mm/hr 0.13 in3.3 mm
09:21 AM 44.6°F7.0°C 35.7°F2.1°C 71% 9.2 mph SSW14.8 kmh SSW 28.9 mph46.5 kmh 29.25 in990.5 mb 0.00 in0.0 mm 0.00 in/hr0.0 mm/hr 0.13 in3.3 mm
09:22 AM 44.6°F7.0°C 35.7°F2.1°C 71% 12.1 mph SW19.5 kmh SW 28.9 mph46.5 kmh 29.26 in990.9 mb 0.00 in0.0 mm 0.00 in/hr0.0 mm/hr 0.13 in3.3 mm
09:23 AM 44.6°F7.0°C 36.0°F2.2°C 72% 7.6 mph SSW12.2 kmh SSW 28.9 mph46.5 kmh 29.26 in990.9 mb 0.00 in0.0 mm 0.00 in/hr0.0 mm/hr 0.13 in3.3 mm
09:24 AM 44.6°F7.0°C 36.0°F2.2°C 72% 10.7 mph SSW17.2 kmh SSW 23.5 mph37.8 kmh 29.26 in990.9 mb 0.00 in0.0 mm 0.00 in/hr0.0 mm/hr 0.13 in3.3 mm
09:25 AM 44.6°F7.0°C 36.0°F2.2°C 72% 9.2 mph SSW14.8 kmh SSW 26.6 mph42.8 kmh 29.26 in990.9 mb 0.00 in0.0 mm 0.00 in/hr0.0 mm/hr 0.13 in3.3 mm
09:26 AM 44.6°F7.0°C 36.0°F2.2°C 72% 8.3 mph S13.4 kmh S 26.6 mph42.8 kmh 29.26 in990.9 mb 0.00 in0.0 mm 0.00 in/hr0.0 mm/hr 0.13 in3.3 mm
09:27 AM 44.6°F7.0°C 36.0°F2.2°C 72% 12.1 mph S19.5 kmh S 26.6 mph42.8 kmh 29.27 in991.2 mb 0.00 in0.0 mm 0.00 in/hr0.0 mm/hr 0.13 in3.3 mm
09:28 AM 44.6°F7.0°C 36.0°F2.2°C 72% 13.0 mph S20.9 kmh S 26.6 mph42.8 kmh 29.27 in991.2 mb 0.00 in0.0 mm 0.00 in/hr0.0 mm/hr 0.13 in3.3 mm
09:29 AM 44.6°F7.0°C 36.0°F2.2°C 72% 11.4 mph SSW18.3 kmh SSW 26.6 mph42.8 kmh 29.27 in991.2 mb 0.00 in0.0 mm 0.00 in/hr0.0 mm/hr 0.13 in3.3 mm
09:30 AM 44.6°F7.0°C 36.0°F2.2°C 72% 10.7 mph W17.2 kmh W 26.6 mph42.8 kmh 29.26 in990.9 mb 0.00 in0.0 mm 0.00 in/hr0.0 mm/hr 0.13 in3.3 mm
09:31 AM 44.4°F6.9°C 36.2°F2.3°C 73% 12.1 mph WSW19.5 kmh WSW 28.9 mph46.5 kmh 29.26 in990.9 mb 0.00 in0.0 mm 0.00 in/hr0.0 mm/hr 0.13 in3.3 mm
09:32 AM 44.2°F6.8°C 36.4°F2.4°C 74% 9.2 mph W14.8 kmh W 28.9 mph46.5 kmh 29.27 in991.2 mb 0.00 in0.0 mm 0.00 in/hr0.0 mm/hr 0.13 in3.3 mm
09:33 AM 44.2°F6.8°C 36.7°F2.6°C 75% 10.7 mph NW17.2 kmh NW 28.9 mph46.5 kmh 29.26 in990.9 mb 0.00 in0.0 mm 0.00 in/hr0.0 mm/hr 0.13 in3.3 mm
09:34 AM 44.1°F6.7°C 36.6°F2.6°C 75% 7.6 mph WNW12.2 kmh WNW 28.9 mph46.5 kmh 29.26 in990.9 mb 0.01 in0.3 mm 0.60 in/hr15.2 mm/hr 0.14 in3.6 mm
09:35 AM 43.9°F6.6°C 36.7°F2.6°C 76% 8.3 mph W13.4 kmh W 28.9 mph46.5 kmh 29.27 in991.2 mb 0.01 in0.3 mm 0.00 in/hr0.0 mm/hr 0.14 in3.6 mm
09:36 AM 43.9°F6.6°C 36.4°F2.4°C 75% 15.2 mph WSW24.5 kmh WSW 28.9 mph46.5 kmh 29.26 in990.9 mb 0.01 in0.3 mm 0.00 in/hr0.0 mm/hr 0.14 in3.6 mm
09:37 AM 43.9°F6.6°C 36.7°F2.6°C 76% 6.9 mph WSW11.1 kmh WSW 28.9 mph46.5 kmh 29.26 in990.9 mb 0.01 in0.3 mm 0.00 in/hr0.0 mm/hr 0.14 in3.6 mm
09:38 AM 43.9°F6.6°C 36.4°F2.4°C 75% 9.8 mph WSW15.8 kmh WSW 28.9 mph46.5 kmh 29.26 in990.9 mb 0.01 in0.3 mm 0.00 in/hr0.0 mm/hr 0.14 in3.6 mm
09:39 AM 44.1°F6.7°C 36.6°F2.6°C 75% 6.9 mph WSW11.1 kmh WSW 28.9 mph46.5 kmh 29.27 in991.2 mb 0.01 in0.3 mm 0.00 in/hr0.0 mm/hr 0.14 in3.6 mm
09:40 AM 44.1°F6.7°C 36.2°F2.3°C 74% 10.7 mph SW17.2 kmh SW 28.9 mph46.5 kmh 29.27 in991.2 mb 0.01 in0.3 mm 0.00 in/hr0.0 mm/hr 0.14 in3.6 mm
09:41 AM 44.2°F6.8°C 36.0°F2.2°C 73% 10.7 mph SSW17.2 kmh SSW 28.9 mph46.5 kmh 29.27 in991.2 mb 0.01 in0.3 mm 0.00 in/hr0.0 mm/hr 0.14 in3.6 mm
09:42 AM 44.2°F6.8°C 36.4°F2.4°C 74% 10.7 mph S17.2 kmh S 26.6 mph42.8 kmh 29.27 in991.2 mb 0.01 in0.3 mm 0.00 in/hr0.0 mm/hr 0.14 in3.6 mm
09:43 AM 44.2°F6.8°C 36.4°F2.4°C 74% 6.9 mph S11.1 kmh S 26.6 mph42.8 kmh 29.27 in991.2 mb 0.01 in0.3 mm 0.00 in/hr0.0 mm/hr 0.14 in3.6 mm
09:44 AM 44.2°F6.8°C 36.7°F2.6°C 75% 5.4 mph S8.7 kmh S 26.6 mph42.8 kmh 29.26 in990.9 mb 0.01 in0.3 mm 0.00 in/hr0.0 mm/hr 0.14 in3.6 mm
09:45 AM 44.2°F6.8°C 36.4°F2.4°C 74% 11.4 mph SSE18.3 kmh SSE 26.6 mph42.8 kmh 29.27 in991.2 mb 0.01 in0.3 mm 0.00 in/hr0.0 mm/hr 0.14 in3.6 mm
09:46 AM 44.1°F6.7°C 36.6°F2.6°C 75% 7.6 mph S12.2 kmh S 26.6 mph42.8 kmh 29.27 in991.2 mb 0.01 in0.3 mm 0.00 in/hr0.0 mm/hr 0.14 in3.6 mm
09:47 AM 44.1°F6.7°C 36.6°F2.6°C 75% 7.6 mph S12.2 kmh S 26.6 mph42.8 kmh 29.26 in990.9 mb 0.01 in0.3 mm 0.00 in/hr0.0 mm/hr 0.14 in3.6 mm
09:48 AM 44.1°F6.7°C 36.2°F2.3°C 74% 12.1 mph S19.5 kmh S 26.6 mph42.8 kmh 29.27 in991.2 mb 0.01 in0.3 mm 0.00 in/hr0.0 mm/hr 0.14 in3.6 mm
09:49 AM 44.1°F6.7°C 36.2°F2.3°C 74% 8.3 mph S13.4 kmh S 26.6 mph42.8 kmh 29.27 in991.2 mb 0.01 in0.3 mm 0.00 in/hr0.0 mm/hr 0.14 in3.6 mm
09:50 AM 44.1°F6.7°C 36.2°F2.3°C 74% 10.7 mph S17.2 kmh S 28.2 mph45.4 kmh 29.27 in991.2 mb 0.01 in0.3 mm 0.00 in/hr0.0 mm/hr 0.14 in3.6 mm
09:51 AM 44.2°F6.8°C 36.4°F2.4°C 74% 10.7 mph S17.2 kmh S 28.2 mph45.4 kmh 29.27 in991.2 mb 0.01 in0.3 mm 0.00 in/hr0.0 mm/hr 0.14 in3.6 mm
09:52 AM 44.2°F6.8°C 35.7°F2.1°C 72% 13.6 mph S21.9 kmh S 28.2 mph45.4 kmh 29.27 in991.2 mb 0.01 in0.3 mm 0.00 in/hr0.0 mm/hr 0.14 in3.6 mm
09:53 AM 44.2°F6.8°C 35.3°F1.8°C 71% 12.1 mph S19.5 kmh S 28.2 mph45.4 kmh 29.27 in991.2 mb 0.01 in0.3 mm 0.00 in/hr0.0 mm/hr 0.14 in3.6 mm
09:54 AM 44.4°F6.9°C 35.5°F1.9°C 71% 10.7 mph S17.2 kmh S 28.2 mph45.4 kmh 29.27 in991.2 mb 0.01 in0.3 mm 0.00 in/hr0.0 mm/hr 0.14 in3.6 mm
09:55 AM 44.6°F7.0°C 35.7°F2.1°C 71% 8.3 mph S13.4 kmh S 28.2 mph45.4 kmh 29.27 in991.2 mb 0.01 in0.3 mm 0.00 in/hr0.0 mm/hr 0.14 in3.6 mm
09:56 AM 44.6°F7.0°C 35.7°F2.1°C 71% 8.3 mph S13.4 kmh S 28.2 mph45.4 kmh 29.27 in991.2 mb 0.01 in0.3 mm 0.00 in/hr0.0 mm/hr 0.14 in3.6 mm
09:57 AM 44.6°F7.0°C 35.7°F2.1°C 71% 6.9 mph SSE11.1 kmh SSE 28.2 mph45.4 kmh 29.27 in991.2 mb 0.01 in0.3 mm 0.00 in/hr0.0 mm/hr 0.14 in3.6 mm
09:58 AM 44.6°F7.0°C 35.7°F2.1°C 71% 9.8 mph S15.8 kmh S 28.2 mph45.4 kmh 29.27 in991.2 mb 0.01 in0.3 mm 0.00 in/hr0.0 mm/hr 0.14 in3.6 mm
09:59 AM 44.6°F7.0°C 36.0°F2.2°C 72% 9.2 mph S14.8 kmh S 28.2 mph45.4 kmh 29.27 in991.2 mb 0.01 in0.3 mm 0.00 in/hr0.0 mm/hr 0.14 in3.6 mm
10:00 AM 44.4°F6.9°C 35.8°F2.1°C 72% 10.7 mph S17.2 kmh S 22.1 mph35.6 kmh 29.28 in991.5 mb 0.01 in0.3 mm 0.00 in/hr0.0 mm/hr 0.14 in3.6 mm
10:01 AM 44.4°F6.9°C 35.8°F2.1°C 72% 10.7 mph S17.2 kmh S 22.1 mph35.6 kmh 29.27 in991.2 mb 0.01 in0.3 mm 0.00 in/hr0.0 mm/hr 0.14 in3.6 mm
10:02 AM 44.4°F6.9°C 36.2°F2.3°C 73% 7.6 mph S12.2 kmh S 22.1 mph35.6 kmh 29.27 in991.2 mb 0.01 in0.3 mm 0.00 in/hr0.0 mm/hr 0.14 in3.6 mm
10:03 AM 44.2°F6.8°C 35.7°F2.1°C 72% 11.4 mph S18.3 kmh S 22.1 mph35.6 kmh 29.28 in991.5 mb 0.01 in0.3 mm 0.00 in/hr0.0 mm/hr 0.14 in3.6 mm
10:04 AM 44.1°F6.7°C 35.1°F1.7°C 71% 11.4 mph S18.3 kmh S 22.1 mph35.6 kmh 29.27 in991.2 mb 0.01 in0.3 mm 0.00 in/hr0.0 mm/hr 0.14 in3.6 mm
10:05 AM 44.2°F6.8°C 35.3°F1.8°C 71% 13.0 mph SSW20.9 kmh SSW 22.1 mph35.6 kmh 29.27 in991.2 mb 0.01 in0.3 mm 0.00 in/hr0.0 mm/hr 0.14 in3.6 mm
10:06 AM 44.2°F6.8°C 35.3°F1.8°C 71% 9.8 mph SSW15.8 kmh SSW 22.1 mph35.6 kmh 29.27 in991.2 mb 0.01 in0.3 mm 0.00 in/hr0.0 mm/hr 0.14 in3.6 mm
10:07 AM 44.2°F6.8°C 35.3°F1.8°C 71% 9.2 mph SSW14.8 kmh SSW 22.1 mph35.6 kmh 29.28 in991.5 mb 0.01 in0.3 mm 0.00 in/hr0.0 mm/hr 0.14 in3.6 mm
10:08 AM 44.2°F6.8°C 34.9°F1.6°C 70% 10.7 mph S17.2 kmh S 26.6 mph42.8 kmh 29.26 in990.9 mb 0.01 in0.3 mm 0.00 in/hr0.0 mm/hr 0.14 in3.6 mm
10:09 AM 44.2°F6.8°C 34.9°F1.6°C 70% 10.7 mph S17.2 kmh S 26.6 mph42.8 kmh 29.27 in991.2 mb 0.01 in0.3 mm 0.00 in/hr0.0 mm/hr 0.14 in3.6 mm
10:10 AM 44.4°F6.9°C 35.1°F1.7°C 70% 9.8 mph S15.8 kmh S 26.6 mph42.8 kmh 29.27 in991.2 mb 0.01 in0.3 mm 0.00 in/hr0.0 mm/hr 0.14 in3.6 mm
10:11 AM 44.4°F6.9°C 35.1°F1.7°C 70% 7.6 mph S12.2 kmh S 26.6 mph42.8 kmh 29.28 in991.5 mb 0.01 in0.3 mm 0.00 in/hr0.0 mm/hr 0.14 in3.6 mm
10:12 AM 44.4°F6.9°C 35.1°F1.7°C 70% 11.4 mph S18.3 kmh S 26.6 mph42.8 kmh 29.28 in991.5 mb 0.01 in0.3 mm 0.00 in/hr0.0 mm/hr 0.14 in3.6 mm
10:13 AM 44.6°F7.0°C 35.3°F1.8°C 70% 11.4 mph SSE18.3 kmh SSE 26.6 mph42.8 kmh 29.27 in991.2 mb 0.01 in0.3 mm 0.00 in/hr0.0 mm/hr 0.14 in3.6 mm
10:14 AM 44.6°F7.0°C 35.3°F1.8°C 70% 7.6 mph SSE12.2 kmh SSE 26.6 mph42.8 kmh 29.28 in991.5 mb 0.01 in0.3 mm 0.00 in/hr0.0 mm/hr 0.14 in3.6 mm
10:15 AM 44.6°F7.0°C 35.7°F2.1°C 71% 5.4 mph SSE8.7 kmh SSE 26.6 mph42.8 kmh 29.29 in991.9 mb 0.01 in0.3 mm 0.00 in/hr0.0 mm/hr 0.14 in3.6 mm
10:16 AM 44.6°F7.0°C 36.0°F2.2°C 72% 6.9 mph SSE11.1 kmh SSE 26.6 mph42.8 kmh 29.28 in991.5 mb 0.01 in0.3 mm 0.00 in/hr0.0 mm/hr 0.14 in3.6 mm
10:17 AM 44.4°F6.9°C 35.5°F1.9°C 71% 10.7 mph SSE17.2 kmh SSE 26.6 mph42.8 kmh 29.30 in992.2 mb 0.01 in0.3 mm 0.00 in/hr0.0 mm/hr 0.14 in3.6 mm
10:18 AM 44.4°F6.9°C 35.5°F1.9°C 71% 11.4 mph SSE18.3 kmh SSE 26.6 mph42.8 kmh 29.29 in991.9 mb 0.01 in0.3 mm 0.00 in/hr0.0 mm/hr 0.14 in3.6 mm
10:19 AM 44.4°F6.9°C 35.5°F1.9°C 71% 7.6 mph SSE12.2 kmh SSE 25.9 mph41.7 kmh 29.28 in991.5 mb 0.01 in0.3 mm 0.00 in/hr0.0 mm/hr 0.14 in3.6 mm
10:20 AM 44.4°F6.9°C 35.5°F1.9°C 71% 4.5 mph SSE7.2 kmh SSE 25.9 mph41.7 kmh 29.28 in991.5 mb 0.01 in0.3 mm 0.00 in/hr0.0 mm/hr 0.14 in3.6 mm
10:21 AM 44.4°F6.9°C 35.1°F1.7°C 70% 9.8 mph SSE15.8 kmh SSE 25.9 mph41.7 kmh 29.29 in991.9 mb 0.01 in0.3 mm 0.00 in/hr0.0 mm/hr 0.14 in3.6 mm
10:22 AM 44.6°F7.0°C 35.3°F1.8°C 70% 7.6 mph SSE12.2 kmh SSE 25.9 mph41.7 kmh 29.29 in991.9 mb 0.01 in0.3 mm 0.00 in/hr0.0 mm/hr 0.14 in3.6 mm
10:23 AM 44.6°F7.0°C 35.7°F2.1°C 71% 6.9 mph SSE11.1 kmh SSE 25.9 mph41.7 kmh 29.28 in991.5 mb 0.01 in0.3 mm 0.00 in/hr0.0 mm/hr 0.14 in3.6 mm
10:24 AM 44.6°F7.0°C 35.7°F2.1°C 71% 6.0 mph SSE9.7 kmh SSE 25.1 mph40.4 kmh 29.29 in991.9 mb 0.01 in0.3 mm 0.00 in/hr0.0 mm/hr 0.14 in3.6 mm
10:25 AM 44.6°F7.0°C 35.3°F1.8°C 70% 10.7 mph SSE17.2 kmh SSE 25.1 mph40.4 kmh 29.29 in991.9 mb 0.01 in0.3 mm 0.00 in/hr0.0 mm/hr 0.14 in3.6 mm
10:26 AM 44.6°F7.0°C 35.3°F1.8°C 70% 8.3 mph SSE13.4 kmh SSE 25.1 mph40.4 kmh 29.29 in991.9 mb 0.01 in0.3 mm 0.00 in/hr0.0 mm/hr 0.14 in3.6 mm
10:27 AM 44.8°F7.1°C 34.3°F1.3°C 67% 14.5 mph SSE23.3 kmh SSE 30.4 mph48.9 kmh 29.29 in991.9 mb 0.01 in0.3 mm 0.00 in/hr0.0 mm/hr 0.14 in3.6 mm
10:28 AM 44.8°F7.1°C 34.7°F1.5°C 68% 10.7 mph SSE17.2 kmh SSE 30.4 mph48.9 kmh 29.29 in991.9 mb 0.01 in0.3 mm 0.00 in/hr0.0 mm/hr 0.14 in3.6 mm
10:29 AM 44.8°F7.1°C 34.7°F1.5°C 68% 11.4 mph SSE18.3 kmh SSE 30.4 mph48.9 kmh 29.30 in992.2 mb 0.01 in0.3 mm 0.00 in/hr0.0 mm/hr 0.14 in3.6 mm
10:30 AM 44.8°F7.1°C 35.1°F1.7°C 69% 7.6 mph S12.2 kmh S 30.4 mph48.9 kmh 29.29 in991.9 mb 0.01 in0.3 mm 0.00 in/hr0.0 mm/hr 0.14 in3.6 mm
10:31 AM 44.8°F7.1°C 35.1°F1.7°C 69% 9.2 mph SSE14.8 kmh SSE 30.4 mph48.9 kmh 29.30 in992.2 mb 0.01 in0.3 mm 0.00 in/hr0.0 mm/hr 0.14 in3.6 mm
10:32 AM 44.8°F7.1°C 35.1°F1.7°C 69% 8.3 mph SSE13.4 kmh SSE 30.4 mph48.9 kmh 29.30 in992.2 mb 0.01 in0.3 mm 0.00 in/hr0.0 mm/hr 0.14 in3.6 mm
10:33 AM 44.8°F7.1°C 35.1°F1.7°C 69% 14.5 mph S23.3 kmh S 30.4 mph48.9 kmh 29.30 in992.2 mb 0.01 in0.3 mm 0.00 in/hr0.0 mm/hr 0.14 in3.6 mm
10:34 AM 44.8°F7.1°C 35.1°F1.7°C 69% 14.5 mph SSE23.3 kmh SSE 30.4 mph48.9 kmh 29.30 in992.2 mb 0.00 in0.0 mm 0.00 in/hr0.0 mm/hr 0.14 in3.6 mm
10:35 AM 44.8°F7.1°C 34.7°F1.5°C 68% 10.7 mph SSE17.2 kmh SSE 32.0 mph51.5 kmh 29.30 in992.2 mb 0.00 in0.0 mm 0.00 in/hr0.0 mm/hr 0.14 in3.6 mm
10:36 AM 44.8°F7.1°C 34.7°F1.5°C 68% 10.7 mph SSE17.2 kmh SSE 32.0 mph51.5 kmh 29.30 in992.2 mb 0.00 in0.0 mm 0.00 in/hr0.0 mm/hr 0.14 in3.6 mm
10:37 AM 44.8°F7.1°C 34.7°F1.5°C 68% 12.1 mph SSE19.5 kmh SSE 32.0 mph51.5 kmh 29.30 in992.2 mb 0.00 in0.0 mm 0.00 in/hr0.0 mm/hr 0.14 in3.6 mm
10:38 AM 45.0°F7.2°C 34.9°F1.6°C 68% 11.4 mph SSE18.3 kmh SSE 32.0 mph51.5 kmh 29.30 in992.2 mb 0.00 in0.0 mm 0.00 in/hr0.0 mm/hr 0.14 in3.6 mm
10:39 AM 44.8°F7.1°C 34.7°F1.5°C 68% 9.8 mph S15.8 kmh S 32.0 mph51.5 kmh 29.30 in992.2 mb 0.00 in0.0 mm 0.00 in/hr0.0 mm/hr 0.14 in3.6 mm
10:40 AM 44.8°F7.1°C 34.7°F1.5°C 68% 8.3 mph SSE13.4 kmh SSE 32.0 mph51.5 kmh 29.30 in992.2 mb 0.00 in0.0 mm 0.00 in/hr0.0 mm/hr 0.14 in3.6 mm
10:41 AM 44.8°F7.1°C 34.7°F1.5°C 68% 8.3 mph S13.4 kmh S 32.0 mph51.5 kmh 29.31 in992.6 mb 0.00 in0.0 mm 0.00 in/hr0.0 mm/hr 0.14 in3.6 mm
10:42 AM 44.8°F7.1°C 34.3°F1.3°C 67% 7.6 mph S12.2 kmh S 32.0 mph51.5 kmh 29.31 in992.6 mb 0.00 in0.0 mm 0.00 in/hr0.0 mm/hr 0.14 in3.6 mm
10:43 AM 44.8°F7.1°C 33.9°F1.1°C 66% 13.6 mph S21.9 kmh S 32.0 mph51.5 kmh 29.31 in992.6 mb 0.00 in0.0 mm 0.00 in/hr0.0 mm/hr 0.14 in3.6 mm
10:44 AM 45.0°F7.2°C 34.1°F1.2°C 66% 11.4 mph S18.3 kmh S 32.0 mph51.5 kmh 29.30 in992.2 mb 0.00 in0.0 mm 0.00 in/hr0.0 mm/hr 0.14 in3.6 mm
10:45 AM 45.0°F7.2°C 34.5°F1.4°C 67% 8.3 mph S13.4 kmh S 29.8 mph48.0 kmh 29.30 in992.2 mb 0.00 in0.0 mm 0.00 in/hr0.0 mm/hr 0.14 in3.6 mm
10:46 AM 45.1°F7.3°C 34.7°F1.5°C 67% 7.6 mph S12.2 kmh S 27.3 mph43.9 kmh 29.31 in992.6 mb 0.00 in0.0 mm 0.00 in/hr0.0 mm/hr 0.14 in3.6 mm
10:47 AM 45.0°F7.2°C 34.5°F1.4°C 67% 8.3 mph S13.4 kmh S 27.3 mph43.9 kmh 29.31 in992.6 mb 0.00 in0.0 mm 0.00 in/hr0.0 mm/hr 0.14 in3.6 mm
10:48 AM 45.0°F7.2°C 34.5°F1.4°C 67% 8.3 mph S13.4 kmh S 27.3 mph43.9 kmh 29.31 in992.6 mb 0.00 in0.0 mm 0.00 in/hr0.0 mm/hr 0.14 in3.6 mm
10:49 AM 45.0°F7.2°C 34.9°F1.6°C 68% 7.6 mph SSE12.2 kmh SSE 27.3 mph43.9 kmh 29.31 in992.6 mb 0.00 in0.0 mm 0.00 in/hr0.0 mm/hr 0.14 in3.6 mm
10:50 AM 45.0°F7.2°C 34.9°F1.6°C 68% 9.2 mph SSE14.8 kmh SSE 27.3 mph43.9 kmh 29.31 in992.6 mb 0.00 in0.0 mm 0.00 in/hr0.0 mm/hr 0.14 in3.6 mm
10:51 AM 45.0°F7.2°C 35.3°F1.8°C 69% 9.2 mph SSE14.8 kmh SSE 27.3 mph43.9 kmh 29.30 in992.2 mb 0.00 in0.0 mm 0.00 in/hr0.0 mm/hr 0.14 in3.6 mm
10:52 AM 44.8°F7.1°C 35.1°F1.7°C 69% 13.0 mph SSE20.9 kmh SSE 27.3 mph43.9 kmh 29.31 in992.6 mb 0.00 in0.0 mm 0.00 in/hr0.0 mm/hr 0.14 in3.6 mm
10:53 AM 44.8°F7.1°C 35.1°F1.7°C 69% 8.3 mph SSE13.4 kmh SSE 24.4 mph39.3 kmh 29.31 in992.6 mb 0.00 in0.0 mm 0.00 in/hr0.0 mm/hr 0.14 in3.6 mm
10:54 AM 44.8°F7.1°C 35.1°F1.7°C 69% 7.6 mph SSE12.2 kmh SSE 24.4 mph39.3 kmh 29.31 in992.6 mb 0.00 in0.0 mm 0.00 in/hr0.0 mm/hr 0.14 in3.6 mm
10:55 AM 44.8°F7.1°C 35.1°F1.7°C 69% 9.8 mph SSE15.8 kmh SSE 24.4 mph39.3 kmh 29.32 in992.9 mb 0.00 in0.0 mm 0.00 in/hr0.0 mm/hr 0.14 in3.6 mm
10:56 AM 44.8°F7.1°C 35.1°F1.7°C 69% 10.7 mph SSE17.2 kmh SSE 24.4 mph39.3 kmh 29.32 in992.9 mb 0.00 in0.0 mm 0.00 in/hr0.0 mm/hr 0.14 in3.6 mm
10:57 AM 44.8°F7.1°C 35.1°F1.7°C 69% 9.2 mph S14.8 kmh S 24.4 mph39.3 kmh 29.32 in992.9 mb 0.00 in0.0 mm 0.00 in/hr0.0 mm/hr 0.14 in3.6 mm
10:58 AM 44.8°F7.1°C 34.7°F1.5°C 68% 9.8 mph S15.8 kmh S 24.4 mph39.3 kmh 29.32 in992.9 mb 0.00 in0.0 mm 0.00 in/hr0.0 mm/hr 0.14 in3.6 mm
10:59 AM 44.8°F7.1°C 35.1°F1.7°C 69% 8.3 mph S13.4 kmh S 24.4 mph39.3 kmh 29.32 in992.9 mb 0.00 in0.0 mm 0.00 in/hr0.0 mm/hr 0.14 in3.6 mm
11:00 AM 44.8°F7.1°C 35.1°F1.7°C 69% 6.9 mph SSW11.1 kmh SSW 24.4 mph39.3 kmh 29.32 in992.9 mb 0.00 in0.0 mm 0.00 in/hr0.0 mm/hr 0.14 in3.6 mm
11:01 AM 44.8°F7.1°C 35.1°F1.7°C 69% 4.5 mph SSW7.2 kmh SSW 24.4 mph39.3 kmh 29.32 in992.9 mb 0.00 in0.0 mm 0.00 in/hr0.0 mm/hr 0.14 in3.6 mm
11:02 AM 44.8°F7.1°C 35.1°F1.7°C 69% 9.2 mph SW14.8 kmh SW 24.4 mph39.3 kmh 29.32 in992.9 mb 0.00 in0.0 mm 0.00 in/hr0.0 mm/hr 0.14 in3.6 mm
11:03 AM 45.0°F7.2°C 35.3°F1.8°C 69% 6.0 mph SW9.7 kmh SW 24.4 mph39.3 kmh 29.33 in993.2 mb 0.00 in0.0 mm 0.00 in/hr0.0 mm/hr 0.14 in3.6 mm
11:04 AM 45.0°F7.2°C 35.3°F1.8°C 69% 9.8 mph SW15.8 kmh SW 24.4 mph39.3 kmh 29.32 in992.9 mb 0.00 in0.0 mm 0.00 in/hr0.0 mm/hr 0.14 in3.6 mm
11:05 AM 45.0°F7.2°C 34.9°F1.6°C 68% 12.1 mph SSW19.5 kmh SSW 24.4 mph39.3 kmh 29.33 in993.2 mb 0.00 in0.0 mm 0.00 in/hr0.0 mm/hr 0.14 in3.6 mm
11:06 AM 45.0°F7.2°C 35.3°F1.8°C 69% 8.3 mph SSW13.4 kmh SSW 24.4 mph39.3 kmh 29.32 in992.9 mb 0.00 in0.0 mm 0.00 in/hr0.0 mm/hr 0.14 in3.6 mm
11:07 AM 44.8°F7.1°C 34.7°F1.5°C 68% 10.7 mph S17.2 kmh S 24.4 mph39.3 kmh 29.32 in992.9 mb 0.00 in0.0 mm 0.00 in/hr0.0 mm/hr 0.14 in3.6 mm
11:08 AM 44.8°F7.1°C 34.7°F1.5°C 68% 7.6 mph S12.2 kmh S 24.4 mph39.3 kmh 29.33 in993.2 mb 0.00 in0.0 mm 0.00 in/hr0.0 mm/hr 0.14 in3.6 mm
11:09 AM 44.8°F7.1°C 34.3°F1.3°C 67% 12.1 mph SSW19.5 kmh SSW 31.1 mph50.1 kmh 29.32 in992.9 mb 0.00 in0.0 mm 0.00 in/hr0.0 mm/hr 0.14 in3.6 mm
11:10 AM 44.6°F7.0°C 34.5°F1.4°C 68% 9.2 mph S14.8 kmh S 31.1 mph50.1 kmh 29.33 in993.2 mb 0.00 in0.0 mm 0.00 in/hr0.0 mm/hr 0.14 in3.6 mm
11:11 AM 44.6°F7.0°C 34.1°F1.2°C 67% 13.0 mph S20.9 kmh S 31.1 mph50.1 kmh 29.33 in993.2 mb 0.00 in0.0 mm 0.00 in/hr0.0 mm/hr 0.14 in3.6 mm
11:12 AM 44.6°F7.0°C 34.1°F1.2°C 67% 9.2 mph S14.8 kmh S 31.1 mph50.1 kmh 29.33 in993.2 mb 0.00 in0.0 mm 0.00 in/hr0.0 mm/hr 0.14 in3.6 mm
11:13 AM 44.6°F7.0°C 34.1°F1.2°C 67% 9.8 mph S15.8 kmh S 31.1 mph50.1 kmh 29.33 in993.2 mb 0.00 in0.0 mm 0.00 in/hr0.0 mm/hr 0.14 in3.6 mm
11:14 AM 44.6°F7.0°C 33.7°F0.9°C 66% 12.1 mph S19.5 kmh S 31.1 mph50.1 kmh 29.33 in993.2 mb 0.00 in0.0 mm 0.00 in/hr0.0 mm/hr 0.14 in3.6 mm
11:15 AM 44.6°F7.0°C 34.1°F1.2°C 67% 8.3 mph S13.4 kmh S 31.1 mph50.1 kmh 29.34 in993.6 mb 0.00 in0.0 mm 0.00 in/hr0.0 mm/hr 0.14 in3.6 mm
11:16 AM 44.6°F7.0°C 34.1°F1.2°C 67% 9.8 mph S15.8 kmh S 31.1 mph50.1 kmh 29.34 in993.6 mb 0.00 in0.0 mm 0.00 in/hr0.0 mm/hr 0.14 in3.6 mm
11:17 AM 44.6°F7.0°C 34.1°F1.2°C 67% 6.9 mph S11.1 kmh S 31.1 mph50.1 kmh 29.34 in993.6 mb 0.00 in0.0 mm 0.00 in/hr0.0 mm/hr 0.14 in3.6 mm
11:18 AM 44.6°F7.0°C 34.1°F1.2°C 67% 10.7 mph S17.2 kmh S 31.1 mph50.1 kmh 29.34 in993.6 mb 0.00 in0.0 mm 0.00 in/hr0.0 mm/hr 0.14 in3.6 mm
11:19 AM 44.6°F7.0°C 34.1°F1.2°C 67% 9.8 mph SSE15.8 kmh SSE 31.1 mph50.1 kmh 29.33 in993.2 mb 0.00 in0.0 mm 0.00 in/hr0.0 mm/hr 0.14 in3.6 mm
11:20 AM 44.6°F7.0°C 34.1°F1.2°C 67% 9.8 mph S15.8 kmh S 28.2 mph45.4 kmh 29.34 in993.6 mb 0.00 in0.0 mm 0.00 in/hr0.0 mm/hr 0.14 in3.6 mm
11:21 AM 44.6°F7.0°C 34.5°F1.4°C 68% 9.8 mph S15.8 kmh S 28.2 mph45.4 kmh 29.34 in993.6 mb 0.00 in0.0 mm 0.00 in/hr0.0 mm/hr 0.14 in3.6 mm
11:22 AM 44.6°F7.0°C 34.5°F1.4°C 68% 7.6 mph S12.2 kmh S 28.2 mph45.4 kmh 29.34 in993.6 mb 0.00 in0.0 mm 0.00 in/hr0.0 mm/hr 0.14 in3.6 mm
11:23 AM 44.6°F7.0°C 34.5°F1.4°C 68% 9.8 mph S15.8 kmh S 28.2 mph45.4 kmh 29.34 in993.6 mb 0.00 in0.0 mm 0.00 in/hr0.0 mm/hr 0.14 in3.6 mm
11:24 AM 44.6°F7.0°C 34.5°F1.4°C 68% 8.3 mph S13.4 kmh S 28.2 mph45.4 kmh 29.34 in993.6 mb 0.00 in0.0 mm 0.00 in/hr0.0 mm/hr 0.14 in3.6 mm
11:25 AM 44.6°F7.0°C 34.9°F1.6°C 69% 6.0 mph S9.7 kmh S 24.4 mph39.3 kmh 29.34 in993.6 mb 0.00 in0.0 mm 0.00 in/hr0.0 mm/hr 0.14 in3.6 mm
11:26 AM 44.6°F7.0°C 34.5°F1.4°C 68% 8.3 mph S13.4 kmh S 24.4 mph39.3 kmh 29.35 in993.9 mb 0.00 in0.0 mm 0.00 in/hr0.0 mm/hr 0.14 in3.6 mm
11:27 AM 44.6°F7.0°C 34.9°F1.6°C 69% 10.7 mph S17.2 kmh S 24.4 mph39.3 kmh 29.35 in993.9 mb 0.00 in0.0 mm 0.00 in/hr0.0 mm/hr 0.14 in3.6 mm
11:28 AM 44.6°F7.0°C 34.9°F1.6°C 69% 7.6 mph S12.2 kmh S 24.4 mph39.3 kmh 29.35 in993.9 mb 0.00 in0.0 mm 0.00 in/hr0.0 mm/hr 0.14 in3.6 mm
11:29 AM 44.6°F7.0°C 34.9°F1.6°C 69% 7.6 mph S12.2 kmh S 24.4 mph39.3 kmh 29.35 in993.9 mb 0.00 in0.0 mm 0.00 in/hr0.0 mm/hr 0.14 in3.6 mm
11:30 AM 44.6°F7.0°C 34.9°F1.6°C 69% 9.2 mph SSW14.8 kmh SSW 24.4 mph39.3 kmh 29.36 in994.2 mb 0.00 in0.0 mm 0.00 in/hr0.0 mm/hr 0.14 in3.6 mm
11:31 AM 44.6°F7.0°C 34.5°F1.4°C 68% 11.4 mph SSW18.3 kmh SSW 24.4 mph39.3 kmh 29.35 in993.9 mb 0.00 in0.0 mm 0.00 in/hr0.0 mm/hr 0.14 in3.6 mm
11:32 AM 44.6°F7.0°C 34.9°F1.6°C 69% 8.3 mph S13.4 kmh S 23.5 mph37.8 kmh 29.36 in994.2 mb 0.00 in0.0 mm 0.00 in/hr0.0 mm/hr 0.14 in3.6 mm
11:33 AM 44.8°F7.1°C 35.1°F1.7°C 69% 9.2 mph S14.8 kmh S 23.5 mph37.8 kmh 29.35 in993.9 mb 0.00 in0.0 mm 0.00 in/hr0.0 mm/hr 0.14 in3.6 mm
11:34 AM 44.8°F7.1°C 35.5°F1.9°C 70% 11.4 mph S18.3 kmh S 23.5 mph37.8 kmh 29.35 in993.9 mb 0.00 in0.0 mm 0.00 in/hr0.0 mm/hr 0.14 in3.6 mm
11:35 AM 44.6°F7.0°C 35.3°F1.8°C 70% 9.8 mph S15.8 kmh S 23.5 mph37.8 kmh 29.36 in994.2 mb 0.00 in0.0 mm 0.00 in/hr0.0 mm/hr 0.14 in3.6 mm
11:36 AM 44.6°F7.0°C 35.3°F1.8°C 70% 10.7 mph S17.2 kmh S 26.6 mph42.8 kmh 29.36 in994.2 mb 0.00 in0.0 mm 0.00 in/hr0.0 mm/hr 0.14 in3.6 mm
11:37 AM 44.6°F7.0°C 35.3°F1.8°C 70% 10.7 mph S17.2 kmh S 26.6 mph42.8 kmh 29.36 in994.2 mb 0.00 in0.0 mm 0.00 in/hr0.0 mm/hr 0.14 in3.6 mm
11:38 AM 44.6°F7.0°C 35.3°F1.8°C 70% 9.8 mph S15.8 kmh S 26.6 mph42.8 kmh 29.36 in994.2 mb 0.00 in0.0 mm 0.00 in/hr0.0 mm/hr 0.14 in3.6 mm
11:39 AM 44.6°F7.0°C 35.3°F1.8°C 70% 9.2 mph S14.8 kmh S 26.6 mph42.8 kmh 29.36 in994.2 mb 0.00 in0.0 mm 0.00 in/hr0.0 mm/hr 0.14 in3.6 mm
11:40 AM 44.4°F6.9°C 35.1°F1.7°C 70% 9.8 mph S15.8 kmh S 26.6 mph42.8 kmh 29.36 in994.2 mb 0.00 in0.0 mm 0.00 in/hr0.0 mm/hr 0.14 in3.6 mm
11:41 AM 44.4°F6.9°C 35.5°F1.9°C 71% 8.3 mph S13.4 kmh S 26.6 mph42.8 kmh 29.36 in994.2 mb 0.00 in0.0 mm 0.00 in/hr0.0 mm/hr 0.14 in3.6 mm
11:42 AM 44.4°F6.9°C 35.5°F1.9°C 71% 10.7 mph SSE17.2 kmh SSE 26.6 mph42.8 kmh 29.37 in994.6 mb 0.00 in0.0 mm 0.00 in/hr0.0 mm/hr 0.14 in3.6 mm
11:43 AM 44.4°F6.9°C 35.5°F1.9°C 71% 9.2 mph S14.8 kmh S 26.6 mph42.8 kmh 29.37 in994.6 mb 0.00 in0.0 mm 0.00 in/hr0.0 mm/hr 0.14 in3.6 mm
11:44 AM 44.4°F6.9°C 35.5°F1.9°C 71% 11.4 mph S18.3 kmh S 26.6 mph42.8 kmh 29.36 in994.2 mb 0.00 in0.0 mm 0.00 in/hr0.0 mm/hr 0.14 in3.6 mm
11:45 AM 44.4°F6.9°C 35.5°F1.9°C 71% 12.1 mph S19.5 kmh S 26.6 mph42.8 kmh 29.37 in994.6 mb 0.00 in0.0 mm 0.00 in/hr0.0 mm/hr 0.14 in3.6 mm
11:46 AM 44.2°F6.8°C 35.7°F2.1°C 72% 9.2 mph S14.8 kmh S 26.6 mph42.8 kmh 29.36 in994.2 mb 0.00 in0.0 mm 0.00 in/hr0.0 mm/hr 0.14 in3.6 mm
11:47 AM 44.2°F6.8°C 36.0°F2.2°C 73% 9.8 mph S15.8 kmh S 26.6 mph42.8 kmh 29.37 in994.6 mb 0.00 in0.0 mm 0.00 in/hr0.0 mm/hr 0.14 in3.6 mm
11:48 AM 44.1°F6.7°C 35.5°F1.9°C 72% 12.1 mph S19.5 kmh S 28.2 mph45.4 kmh 29.37 in994.6 mb 0.00 in0.0 mm 0.00 in/hr0.0 mm/hr 0.14 in3.6 mm
11:49 AM 44.1°F6.7°C 35.9°F2.2°C 73% 6.0 mph S9.7 kmh S 28.2 mph45.4 kmh 29.38 in994.9 mb 0.00 in0.0 mm 0.00 in/hr0.0 mm/hr 0.14 in3.6 mm
11:50 AM 43.9°F6.6°C 35.7°F2.1°C 73% 11.4 mph S18.3 kmh S 28.2 mph45.4 kmh 29.38 in994.9 mb 0.00 in0.0 mm 0.00 in/hr0.0 mm/hr 0.14 in3.6 mm
11:51 AM 43.9°F6.6°C 36.0°F2.2°C 74% 8.3 mph SW13.4 kmh SW 28.2 mph45.4 kmh 29.37 in994.6 mb 0.00 in0.0 mm 0.00 in/hr0.0 mm/hr 0.14 in3.6 mm
11:52 AM 43.7°F6.5°C 35.9°F2.2°C 74% 7.6 mph WSW12.2 kmh WSW 28.2 mph45.4 kmh 29.38 in994.9 mb 0.00 in0.0 mm 0.00 in/hr0.0 mm/hr 0.14 in3.6 mm
11:53 AM 43.7°F6.5°C 35.9°F2.2°C 74% 9.2 mph WSW14.8 kmh WSW 28.2 mph45.4 kmh 29.38 in994.9 mb 0.00 in0.0 mm 0.00 in/hr0.0 mm/hr 0.14 in3.6 mm
11:54 AM 43.7°F6.5°C 35.9°F2.2°C 74% 9.2 mph SW14.8 kmh SW 28.2 mph45.4 kmh 29.38 in994.9 mb 0.00 in0.0 mm 0.00 in/hr0.0 mm/hr 0.14 in3.6 mm
11:55 AM 43.5°F6.4°C 35.7°F2.1°C 74% 9.2 mph SW14.8 kmh SW 28.2 mph45.4 kmh 29.38 in994.9 mb 0.00 in0.0 mm 0.00 in/hr0.0 mm/hr 0.14 in3.6 mm
11:56 AM 43.5°F6.4°C 36.0°F2.2°C 75% 9.2 mph SW14.8 kmh SW 28.2 mph45.4 kmh 29.38 in994.9 mb 0.00 in0.0 mm 0.00 in/hr0.0 mm/hr 0.14 in3.6 mm
11:57 AM 43.5°F6.4°C 35.7°F2.1°C 74% 13.6 mph SW21.9 kmh SW 28.2 mph45.4 kmh 29.38 in994.9 mb 0.00 in0.0 mm 0.00 in/hr0.0 mm/hr 0.14 in3.6 mm
11:58 AM 43.5°F6.4°C 35.3°F1.8°C 73% 15.9 mph SW25.6 kmh SW 28.9 mph46.5 kmh 29.38 in994.9 mb 0.00 in0.0 mm 0.00 in/hr0.0 mm/hr 0.14 in3.6 mm
11:59 AM 43.5°F6.4°C 35.3°F1.8°C 73% 7.6 mph SW12.2 kmh SW 28.9 mph46.5 kmh 29.39 in995.3 mb 0.00 in0.0 mm 0.00 in/hr0.0 mm/hr 0.14 in3.6 mm
12:00 PM 43.5°F6.4°C 35.3°F1.8°C 73% 10.7 mph SW17.2 kmh SW 28.9 mph46.5 kmh 29.38 in994.9 mb 0.00 in0.0 mm 0.00 in/hr0.0 mm/hr 0.14 in3.6 mm
12:01 PM 43.5°F6.4°C 35.3°F1.8°C 73% 8.3 mph SSW13.4 kmh SSW 28.9 mph46.5 kmh 29.38 in994.9 mb 0.00 in0.0 mm 0.00 in/hr0.0 mm/hr 0.14 in3.6 mm
12:02 PM 43.5°F6.4°C 35.0°F1.7°C 72% 13.6 mph SSW21.9 kmh SSW 34.2 mph55.0 kmh 29.39 in995.3 mb 0.00 in0.0 mm 0.00 in/hr0.0 mm/hr 0.14 in3.6 mm
12:03 PM 43.5°F6.4°C 35.0°F1.7°C 72% 14.5 mph SSW23.3 kmh SSW 34.2 mph55.0 kmh 29.38 in994.9 mb 0.00 in0.0 mm 0.00 in/hr0.0 mm/hr 0.14 in3.6 mm
12:04 PM 43.5°F6.4°C 35.0°F1.7°C 72% 13.6 mph SSW21.9 kmh SSW 34.2 mph55.0 kmh 29.38 in994.9 mb 0.00 in0.0 mm 0.00 in/hr0.0 mm/hr 0.14 in3.6 mm
12:05 PM 43.5°F6.4°C 34.6°F1.4°C 71% 14.5 mph SSW23.3 kmh SSW 34.2 mph55.0 kmh 29.39 in995.3 mb 0.00 in0.0 mm 0.00 in/hr0.0 mm/hr 0.14 in3.6 mm
12:06 PM 43.7°F6.5°C 35.2°F1.8°C 72% 8.3 mph SW13.4 kmh SW 34.2 mph55.0 kmh 29.39 in995.3 mb 0.00 in0.0 mm 0.00 in/hr0.0 mm/hr 0.14 in3.6 mm
12:07 PM 43.7°F6.5°C 35.5°F1.9°C 73% 9.8 mph SW15.8 kmh SW 34.2 mph55.0 kmh 29.39 in995.3 mb 0.00 in0.0 mm 0.00 in/hr0.0 mm/hr 0.14 in3.6 mm
12:08 PM 43.5°F6.4°C 35.3°F1.8°C 73% 11.4 mph SW18.3 kmh SW 34.2 mph55.0 kmh 29.39 in995.3 mb 0.00 in0.0 mm 0.00 in/hr0.0 mm/hr 0.14 in3.6 mm
12:09 PM 43.5°F6.4°C 35.3°F1.8°C 73% 7.6 mph SSW12.2 kmh SSW 34.2 mph55.0 kmh 29.39 in995.3 mb 0.00 in0.0 mm 0.00 in/hr0.0 mm/hr 0.14 in3.6 mm
12:10 PM 43.3°F6.3°C 35.9°F2.2°C 75% 9.2 mph SW14.8 kmh SW 34.2 mph55.0 kmh 29.39 in995.3 mb 0.00 in0.0 mm 0.00 in/hr0.0 mm/hr 0.14 in3.6 mm
12:11 PM 43.2°F6.2°C 35.7°F2.1°C 75% 8.3 mph SW13.4 kmh SW 34.2 mph55.0 kmh 29.39 in995.3 mb 0.00 in0.0 mm 0.00 in/hr0.0 mm/hr 0.14 in3.6 mm
12:12 PM 43.0°F6.1°C 35.5°F1.9°C 75% 9.8 mph SW15.8 kmh SW 34.2 mph55.0 kmh 29.39 in995.3 mb 0.00 in0.0 mm 0.00 in/hr0.0 mm/hr 0.14 in3.6 mm
12:13 PM 43.0°F6.1°C 35.5°F1.9°C 75% 7.6 mph SW12.2 kmh SW 32.0 mph51.5 kmh 29.40 in995.6 mb 0.00 in0.0 mm 0.00 in/hr0.0 mm/hr 0.14 in3.6 mm
12:14 PM 42.8°F6.0°C 35.7°F2.1°C 76% 7.6 mph SSW12.2 kmh SSW 32.0 mph51.5 kmh 29.39 in995.3 mb 0.00 in0.0 mm 0.00 in/hr0.0 mm/hr 0.14 in3.6 mm
12:15 PM 42.6°F5.9°C 35.5°F1.9°C 76% 8.3 mph S13.4 kmh S 32.0 mph51.5 kmh 29.39 in995.3 mb 0.00 in0.0 mm 0.00 in/hr0.0 mm/hr 0.14 in3.6 mm
12:16 PM 42.6°F5.9°C 35.5°F1.9°C 76% 7.6 mph S12.2 kmh S 21.3 mph34.3 kmh 29.39 in995.3 mb 0.00 in0.0 mm 0.00 in/hr0.0 mm/hr 0.14 in3.6 mm
12:17 PM 42.6°F5.9°C 35.5°F1.9°C 76% 8.3 mph SSW13.4 kmh SSW 21.3 mph34.3 kmh 29.39 in995.3 mb 0.00 in0.0 mm 0.00 in/hr0.0 mm/hr 0.14 in3.6 mm
12:18 PM 42.6°F5.9°C 35.5°F1.9°C 76% 8.3 mph S13.4 kmh S 21.3 mph34.3 kmh 29.40 in995.6 mb 0.00 in0.0 mm 0.00 in/hr0.0 mm/hr 0.14 in3.6 mm
12:19 PM 42.6°F5.9°C 35.5°F1.9°C 76% 6.9 mph S11.1 kmh S 21.3 mph34.3 kmh 29.39 in995.3 mb 0.00 in0.0 mm 0.00 in/hr0.0 mm/hr 0.14 in3.6 mm
12:20 PM 42.6°F5.9°C 35.5°F1.9°C 76% 8.3 mph S13.4 kmh S 21.3 mph34.3 kmh 29.40 in995.6 mb 0.00 in0.0 mm 0.00 in/hr0.0 mm/hr 0.14 in3.6 mm
12:21 PM 42.6°F5.9°C 35.5°F1.9°C 76% 8.3 mph S13.4 kmh S 21.3 mph34.3 kmh 29.40 in995.6 mb 0.00 in0.0 mm 0.00 in/hr0.0 mm/hr 0.14 in3.6 mm
12:22 PM 42.4°F5.8°C 35.3°F1.8°C 76% 10.7 mph S17.2 kmh S 30.4 mph48.9 kmh 29.40 in995.6 mb 0.00 in0.0 mm 0.00 in/hr0.0 mm/hr 0.14 in3.6 mm
12:23 PM 42.4°F5.8°C 35.3°F1.8°C 76% 9.2 mph S14.8 kmh S 30.4 mph48.9 kmh 29.40 in995.6 mb 0.00 in0.0 mm 0.00 in/hr0.0 mm/hr 0.14 in3.6 mm
12:24 PM 42.4°F5.8°C 35.3°F1.8°C 76% 7.6 mph S12.2 kmh S 30.4 mph48.9 kmh 29.40 in995.6 mb 0.00 in0.0 mm 0.00 in/hr0.0 mm/hr 0.14 in3.6 mm
12:25 PM 42.4°F5.8°C 35.3°F1.8°C 76% 9.2 mph S14.8 kmh S 30.4 mph48.9 kmh 29.39 in995.3 mb 0.00 in0.0 mm 0.00 in/hr0.0 mm/hr 0.14 in3.6 mm
12:26 PM 42.4°F5.8°C 35.0°F1.7°C 75% 13.0 mph S20.9 kmh S 30.4 mph48.9 kmh 29.40 in995.6 mb 0.00 in0.0 mm 0.00 in/hr0.0 mm/hr 0.14 in3.6 mm
12:27 PM 42.4°F5.8°C 35.3°F1.8°C 76% 9.8 mph S15.8 kmh S 30.4 mph48.9 kmh 29.40 in995.6 mb 0.00 in0.0 mm 0.00 in/hr0.0 mm/hr 0.14 in3.6 mm
12:28 PM 42.3°F5.7°C 35.2°F1.8°C 76% 10.7 mph S17.2 kmh S 30.4 mph48.9 kmh 29.40 in995.6 mb 0.00 in0.0 mm 0.00 in/hr0.0 mm/hr 0.14 in3.6 mm
12:29 PM 42.3°F5.7°C 35.2°F1.8°C 76% 6.9 mph S11.1 kmh S 30.4 mph48.9 kmh 29.40 in995.6 mb 0.00 in0.0 mm 0.00 in/hr0.0 mm/hr 0.14 in3.6 mm
12:30 PM 42.3°F5.7°C 34.8°F1.6°C 75% 9.2 mph SSW14.8 kmh SSW 30.4 mph48.9 kmh 29.40 in995.6 mb 0.00 in0.0 mm 0.00 in/hr0.0 mm/hr 0.14 in3.6 mm
12:31 PM 42.3°F5.7°C 34.8°F1.6°C 75% 9.8 mph SSW15.8 kmh SSW 30.4 mph48.9 kmh 29.40 in995.6 mb 0.00 in0.0 mm 0.00 in/hr0.0 mm/hr 0.14 in3.6 mm
12:32 PM 42.3°F5.7°C 34.8°F1.6°C 75% 15.9 mph SSW25.6 kmh SSW 30.4 mph48.9 kmh 29.41 in995.9 mb 0.00 in0.0 mm 0.00 in/hr0.0 mm/hr 0.14 in3.6 mm
12:33 PM 42.3°F5.7°C 34.8°F1.6°C 75% 10.7 mph S17.2 kmh S 27.3 mph43.9 kmh 29.40 in995.6 mb 0.00 in0.0 mm 0.00 in/hr0.0 mm/hr 0.14 in3.6 mm
12:34 PM 42.3°F5.7°C 34.1°F1.2°C 73% 17.4 mph SSW28.0 kmh SSW 29.8 mph48.0 kmh 29.41 in995.9 mb 0.00 in0.0 mm 0.00 in/hr0.0 mm/hr 0.14 in3.6 mm
12:35 PM 42.4°F5.8°C 34.3°F1.3°C 73% 8.3 mph SSW13.4 kmh SSW 29.8 mph48.0 kmh 29.41 in995.9 mb 0.00 in0.0 mm 0.00 in/hr0.0 mm/hr 0.14 in3.6 mm
12:36 PM 42.4°F5.8°C 34.0°F1.1°C 72% 14.5 mph SSW23.3 kmh SSW 30.4 mph48.9 kmh 29.41 in995.9 mb 0.00 in0.0 mm 0.00 in/hr0.0 mm/hr 0.14 in3.6 mm
12:37 PM 42.4°F5.8°C 34.3°F1.3°C 73% 8.3 mph SSW13.4 kmh SSW 30.4 mph48.9 kmh 29.40 in995.6 mb 0.00 in0.0 mm 0.00 in/hr0.0 mm/hr 0.14 in3.6 mm
12:38 PM 42.4°F5.8°C 34.3°F1.3°C 73% 9.2 mph SSW14.8 kmh SSW 30.4 mph48.9 kmh 29.41 in995.9 mb 0.00 in0.0 mm 0.00 in/hr0.0 mm/hr 0.14 in3.6 mm
12:39 PM 42.4°F5.8°C 34.3°F1.3°C 73% 8.3 mph SSW13.4 kmh SSW 30.4 mph48.9 kmh 29.42 in996.3 mb 0.00 in0.0 mm 0.00 in/hr0.0 mm/hr 0.14 in3.6 mm
12:40 PM 42.4°F5.8°C 34.3°F1.3°C 73% 9.8 mph SSW15.8 kmh SSW 30.4 mph48.9 kmh 29.42 in996.3 mb 0.00 in0.0 mm 0.00 in/hr0.0 mm/hr 0.14 in3.6 mm
12:41 PM 42.4°F5.8°C 34.3°F1.3°C 73% 8.3 mph SSW13.4 kmh SSW 30.4 mph48.9 kmh 29.41 in995.9 mb 0.00 in0.0 mm 0.00 in/hr0.0 mm/hr 0.14 in3.6 mm
12:42 PM 42.4°F5.8°C 34.3°F1.3°C 73% 7.6 mph SSW12.2 kmh SSW 30.4 mph48.9 kmh 29.41 in995.9 mb 0.00 in0.0 mm 0.00 in/hr0.0 mm/hr 0.14 in3.6 mm
12:43 PM 42.4°F5.8°C 34.3°F1.3°C 73% 8.3 mph SSW13.4 kmh SSW 30.4 mph48.9 kmh 29.41 in995.9 mb 0.00 in0.0 mm 0.00 in/hr0.0 mm/hr 0.14 in3.6 mm
12:44 PM 42.4°F5.8°C 34.3°F1.3°C 73% 9.8 mph SSW15.8 kmh SSW 30.4 mph48.9 kmh 29.41 in995.9 mb 0.00 in0.0 mm 0.00 in/hr0.0 mm/hr 0.14 in3.6 mm
12:45 PM 42.4°F5.8°C 34.3°F1.3°C 73% 11.4 mph SSW18.3 kmh SSW 30.4 mph48.9 kmh 29.41 in995.9 mb 0.00 in0.0 mm 0.00 in/hr0.0 mm/hr 0.14 in3.6 mm
12:46 PM 42.3°F5.7°C 34.1°F1.2°C 73% 8.3 mph SSW13.4 kmh SSW 30.4 mph48.9 kmh 29.42 in996.3 mb 0.00 in0.0 mm 0.00 in/hr0.0 mm/hr 0.14 in3.6 mm
12:47 PM 42.3°F5.7°C 34.1°F1.2°C 73% 9.8 mph S15.8 kmh S 20.6 mph33.2 kmh 29.42 in996.3 mb 0.00 in0.0 mm 0.00 in/hr0.0 mm/hr 0.14 in3.6 mm
12:48 PM 42.3°F5.7°C 34.1°F1.2°C 73% 9.8 mph S15.8 kmh S 20.6 mph33.2 kmh 29.42 in996.3 mb 0.00 in0.0 mm 0.00 in/hr0.0 mm/hr 0.14 in3.6 mm
12:49 PM 42.3°F5.7°C 33.8°F1.0°C 72% 13.0 mph S20.9 kmh S 26.6 mph42.8 kmh 29.41 in995.9 mb 0.00 in0.0 mm 0.00 in/hr0.0 mm/hr 0.14 in3.6 mm
12:50 PM 42.3°F5.7°C 33.8°F1.0°C 72% 10.7 mph S17.2 kmh S 26.6 mph42.8 kmh 29.41 in995.9 mb 0.00 in0.0 mm 0.00 in/hr0.0 mm/hr 0.14 in3.6 mm
12:51 PM 42.3°F5.7°C 33.8°F1.0°C 72% 9.2 mph S14.8 kmh S 26.6 mph42.8 kmh 29.42 in996.3 mb 0.00 in0.0 mm 0.00 in/hr0.0 mm/hr 0.14 in3.6 mm
12:52 PM 42.3°F5.7°C 33.8°F1.0°C 72% 8.3 mph S13.4 kmh S 26.6 mph42.8 kmh 29.42 in996.3 mb 0.00 in0.0 mm 0.00 in/hr0.0 mm/hr 0.14 in3.6 mm
12:53 PM 42.3°F5.7°C 33.8°F1.0°C 72% 13.6 mph S21.9 kmh S 26.6 mph42.8 kmh 29.42 in996.3 mb 0.00 in0.0 mm 0.00 in/hr0.0 mm/hr 0.14 in3.6 mm
12:54 PM 42.3°F5.7°C 33.8°F1.0°C 72% 13.6 mph S21.9 kmh S 26.6 mph42.8 kmh 29.42 in996.3 mb 0.00 in0.0 mm 0.00 in/hr0.0 mm/hr 0.14 in3.6 mm
12:55 PM 42.3°F5.7°C 33.8°F1.0°C 72% 11.4 mph SSW18.3 kmh SSW 26.6 mph42.8 kmh 29.42 in996.3 mb 0.00 in0.0 mm 0.00 in/hr0.0 mm/hr 0.14 in3.6 mm
12:56 PM 42.3°F5.7°C 33.4°F0.8°C 71% 9.2 mph S14.8 kmh S 26.6 mph42.8 kmh 29.42 in996.3 mb 0.00 in0.0 mm 0.00 in/hr0.0 mm/hr 0.14 in3.6 mm
12:57 PM 42.3°F5.7°C 33.8°F1.0°C 72% 8.3 mph SSW13.4 kmh SSW 26.6 mph42.8 kmh 29.42 in996.3 mb 0.00 in0.0 mm 0.00 in/hr0.0 mm/hr 0.14 in3.6 mm
12:58 PM 42.3°F5.7°C 33.8°F1.0°C 72% 9.8 mph SW15.8 kmh SW 26.6 mph42.8 kmh 29.42 in996.3 mb 0.00 in0.0 mm 0.00 in/hr0.0 mm/hr 0.14 in3.6 mm
12:59 PM 42.3°F5.7°C 33.8°F1.0°C 72% 8.3 mph SW13.4 kmh SW 25.1 mph40.4 kmh 29.42 in996.3 mb 0.00 in0.0 mm 0.00 in/hr0.0 mm/hr 0.14 in3.6 mm
01:00 PM 42.3°F5.7°C 33.8°F1.0°C 72% 8.3 mph SW13.4 kmh SW 25.1 mph40.4 kmh 29.43 in996.6 mb 0.00 in0.0 mm 0.00 in/hr0.0 mm/hr 0.14 in3.6 mm
01:01 PM 42.1°F5.6°C 33.6°F0.9°C 72% 11.4 mph SW18.3 kmh SW 26.6 mph42.8 kmh 29.43 in996.6 mb 0.00 in0.0 mm 0.00 in/hr0.0 mm/hr 0.14 in3.6 mm
01:02 PM 42.3°F5.7°C 33.8°F1.0°C 72% 11.4 mph SW18.3 kmh SW 28.9 mph46.5 kmh 29.44 in997.0 mb 0.00 in0.0 mm 0.00 in/hr0.0 mm/hr 0.14 in3.6 mm
01:03 PM 42.3°F5.7°C 33.8°F1.0°C 72% 8.3 mph SW13.4 kmh SW 28.9 mph46.5 kmh 29.43 in996.6 mb 0.00 in0.0 mm 0.00 in/hr0.0 mm/hr 0.14 in3.6 mm
01:04 PM 42.3°F5.7°C 33.8°F1.0°C 72% 8.3 mph SW13.4 kmh SW 28.9 mph46.5 kmh 29.43 in996.6 mb 0.00 in0.0 mm 0.00 in/hr0.0 mm/hr 0.14 in3.6 mm
01:05 PM 42.3°F5.7°C 33.8°F1.0°C 72% 6.9 mph SSW11.1 kmh SSW 28.9 mph46.5 kmh 29.43 in996.6 mb 0.00 in0.0 mm 0.00 in/hr0.0 mm/hr 0.14 in3.6 mm
01:06 PM 42.1°F5.6°C 33.6°F0.9°C 72% 12.1 mph SSW19.5 kmh SSW 32.0 mph51.5 kmh 29.43 in996.6 mb 0.00 in0.0 mm 0.00 in/hr0.0 mm/hr 0.14 in3.6 mm
01:07 PM 42.1°F5.6°C 33.6°F0.9°C 72% 7.6 mph SSW12.2 kmh SSW 32.0 mph51.5 kmh 29.43 in996.6 mb 0.00 in0.0 mm 0.00 in/hr0.0 mm/hr 0.14 in3.6 mm
01:08 PM 42.1°F5.6°C 34.0°F1.1°C 73% 7.6 mph S12.2 kmh S 32.0 mph51.5 kmh 29.44 in997.0 mb 0.00 in0.0 mm 0.00 in/hr0.0 mm/hr 0.14 in3.6 mm
01:09 PM 42.1°F5.6°C 34.0°F1.1°C 73% 8.3 mph S13.4 kmh S 32.0 mph51.5 kmh 29.43 in996.6 mb 0.00 in0.0 mm 0.00 in/hr0.0 mm/hr 0.14 in3.6 mm
01:10 PM 42.1°F5.6°C 34.0°F1.1°C 73% 9.8 mph SSW15.8 kmh SSW 32.0 mph51.5 kmh 29.43 in996.6 mb 0.00 in0.0 mm 0.00 in/hr0.0 mm/hr 0.14 in3.6 mm
01:11 PM 42.1°F5.6°C 34.0°F1.1°C 73% 9.8 mph SSW15.8 kmh SSW 32.0 mph51.5 kmh 29.43 in996.6 mb 0.00 in0.0 mm 0.00 in/hr0.0 mm/hr 0.14 in3.6 mm
01:12 PM 42.1°F5.6°C 34.0°F1.1°C 73% 5.4 mph SSW8.7 kmh SSW 32.0 mph51.5 kmh 29.43 in996.6 mb 0.00 in0.0 mm 0.00 in/hr0.0 mm/hr 0.14 in3.6 mm
01:13 PM 42.1°F5.6°C 34.0°F1.1°C 73% 7.6 mph SSW12.2 kmh SSW 32.0 mph51.5 kmh 29.44 in997.0 mb 0.00 in0.0 mm 0.00 in/hr0.0 mm/hr 0.14 in3.6 mm
01:14 PM 42.1°F5.6°C 34.0°F1.1°C 73% 7.6 mph S12.2 kmh S 32.0 mph51.5 kmh 29.44 in997.0 mb 0.00 in0.0 mm 0.00 in/hr0.0 mm/hr 0.14 in3.6 mm
01:15 PM 42.1°F5.6°C 33.6°F0.9°C 72% 9.2 mph S14.8 kmh S 32.0 mph51.5 kmh 29.44 in997.0 mb 0.00 in0.0 mm 0.00 in/hr0.0 mm/hr 0.14 in3.6 mm
01:16 PM 42.1°F5.6°C 33.6°F0.9°C 72% 13.0 mph S20.9 kmh S 32.0 mph51.5 kmh 29.44 in997.0 mb 0.00 in0.0 mm 0.00 in/hr0.0 mm/hr 0.14 in3.6 mm
01:17 PM 42.1°F5.6°C 33.6°F0.9°C 72% 7.6 mph S12.2 kmh S 25.1 mph40.4 kmh 29.44 in997.0 mb 0.00 in0.0 mm 0.00 in/hr0.0 mm/hr 0.14 in3.6 mm
01:18 PM 42.1°F5.6°C 33.6°F0.9°C 72% 9.2 mph SSW14.8 kmh SSW 25.9 mph41.7 kmh 29.44 in997.0 mb 0.00 in0.0 mm 0.00 in/hr0.0 mm/hr 0.14 in3.6 mm
01:19 PM 42.1°F5.6°C 33.6°F0.9°C 72% 8.3 mph SSW13.4 kmh SSW 25.9 mph41.7 kmh 29.44 in997.0 mb 0.00 in0.0 mm 0.00 in/hr0.0 mm/hr 0.14 in3.6 mm
01:20 PM 42.1°F5.6°C 33.6°F0.9°C 72% 6.9 mph S11.1 kmh S 25.9 mph41.7 kmh 29.44 in997.0 mb 0.00 in0.0 mm 0.00 in/hr0.0 mm/hr 0.14 in3.6 mm
01:21 PM 41.9°F5.5°C 33.8°F1.0°C 73% 8.3 mph S13.4 kmh S 25.9 mph41.7 kmh 29.44 in997.0 mb 0.00 in0.0 mm 0.00 in/hr0.0 mm/hr 0.14 in3.6 mm
01:22 PM 41.9°F5.5°C 33.4°F0.8°C 72% 7.6 mph S12.2 kmh S 25.9 mph41.7 kmh 29.44 in997.0 mb 0.00 in0.0 mm 0.00 in/hr0.0 mm/hr 0.14 in3.6 mm
01:23 PM 41.9°F5.5°C 33.8°F1.0°C 73% 8.3 mph S13.4 kmh S 25.9 mph41.7 kmh 29.44 in997.0 mb 0.00 in0.0 mm 0.00 in/hr0.0 mm/hr 0.14 in3.6 mm
01:24 PM 41.9°F5.5°C 33.8°F1.0°C 73% 9.2 mph S14.8 kmh S 25.9 mph41.7 kmh 29.44 in997.0 mb 0.00 in0.0 mm 0.00 in/hr0.0 mm/hr 0.14 in3.6 mm
01:25 PM 41.9°F5.5°C 33.8°F1.0°C 73% 10.7 mph SSW17.2 kmh SSW 25.9 mph41.7 kmh 29.44 in997.0 mb 0.00 in0.0 mm 0.00 in/hr0.0 mm/hr 0.14 in3.6 mm
01:26 PM 41.9°F5.5°C 33.8°F1.0°C 73% 9.2 mph SSW14.8 kmh SSW 25.9 mph41.7 kmh 29.45 in997.3 mb 0.00 in0.0 mm 0.00 in/hr0.0 mm/hr 0.14 in3.6 mm
01:27 PM 41.9°F5.5°C 33.8°F1.0°C 73% 8.3 mph S13.4 kmh S 25.9 mph41.7 kmh 29.45 in997.3 mb 0.00 in0.0 mm 0.00 in/hr0.0 mm/hr 0.14 in3.6 mm
01:28 PM 41.9°F5.5°C 33.8°F1.0°C 73% 7.6 mph S12.2 kmh S 22.1 mph35.6 kmh 29.45 in997.3 mb 0.00 in0.0 mm 0.00 in/hr0.0 mm/hr 0.14 in3.6 mm
01:29 PM 41.7°F5.4°C 33.6°F0.9°C 73% 8.3 mph S13.4 kmh S 22.1 mph35.6 kmh 29.45 in997.3 mb 0.00 in0.0 mm 0.00 in/hr0.0 mm/hr 0.14 in3.6 mm
01:30 PM 41.9°F5.5°C 33.8°F1.0°C 73% 8.3 mph S13.4 kmh S 22.1 mph35.6 kmh 29.46 in997.6 mb 0.00 in0.0 mm 0.00 in/hr0.0 mm/hr 0.14 in3.6 mm
01:31 PM 41.9°F5.5°C 33.4°F0.8°C 72% 9.8 mph S15.8 kmh S 22.1 mph35.6 kmh 29.46 in997.6 mb 0.00 in0.0 mm 0.00 in/hr0.0 mm/hr 0.14 in3.6 mm
01:32 PM 41.9°F5.5°C 33.4°F0.8°C 72% 8.3 mph SSW13.4 kmh SSW 22.1 mph35.6 kmh 29.46 in997.6 mb 0.00 in0.0 mm 0.00 in/hr0.0 mm/hr 0.14 in3.6 mm
01:33 PM 42.1°F5.6°C 33.6°F0.9°C 72% 8.3 mph SSW13.4 kmh SSW 22.1 mph35.6 kmh 29.46 in997.6 mb 0.00 in0.0 mm 0.00 in/hr0.0 mm/hr 0.14 in3.6 mm
01:34 PM 42.1°F5.6°C 33.6°F0.9°C 72% 9.2 mph SW14.8 kmh SW 22.1 mph35.6 kmh 29.46 in997.6 mb 0.00 in0.0 mm 0.00 in/hr0.0 mm/hr 0.14 in3.6 mm
01:35 PM 42.1°F5.6°C 33.6°F0.9°C 72% 7.6 mph SSW12.2 kmh SSW 22.1 mph35.6 kmh 29.46 in997.6 mb 0.00 in0.0 mm 0.00 in/hr0.0 mm/hr 0.14 in3.6 mm
01:36 PM 42.1°F5.6°C 33.6°F0.9°C 72% 13.0 mph SW20.9 kmh SW 23.5 mph37.8 kmh 29.46 in997.6 mb 0.00 in0.0 mm 0.00 in/hr0.0 mm/hr 0.14 in3.6 mm
01:37 PM 42.1°F5.6°C 34.0°F1.1°C 73% 6.0 mph SW9.7 kmh SW 23.5 mph37.8 kmh 29.46 in997.6 mb 0.00 in0.0 mm 0.00 in/hr0.0 mm/hr 0.14 in3.6 mm
01:38 PM 42.1°F5.6°C 34.0°F1.1°C 73% 7.6 mph SW12.2 kmh SW 23.5 mph37.8 kmh 29.47 in998.0 mb 0.00 in0.0 mm 0.00 in/hr0.0 mm/hr 0.14 in3.6 mm
01:39 PM 42.1°F5.6°C 33.6°F0.9°C 72% 7.6 mph SW12.2 kmh SW 23.5 mph37.8 kmh 29.46 in997.6 mb 0.00 in0.0 mm 0.00 in/hr0.0 mm/hr 0.14 in3.6 mm
01:40 PM 42.1°F5.6°C 33.6°F0.9°C 72% 13.0 mph SW20.9 kmh SW 25.1 mph40.4 kmh 29.46 in997.6 mb 0.00 in0.0 mm 0.00 in/hr0.0 mm/hr 0.14 in3.6 mm
01:41 PM 42.1°F5.6°C 33.2°F0.7°C 71% 11.4 mph SW18.3 kmh SW 25.1 mph40.4 kmh 29.47 in998.0 mb 0.00 in0.0 mm 0.00 in/hr0.0 mm/hr 0.14 in3.6 mm
01:42 PM 42.1°F5.6°C 32.9°F0.5°C 70% 16.8 mph SSW27.0 kmh SSW 34.2 mph55.0 kmh 29.48 in998.3 mb 0.00 in0.0 mm 0.00 in/hr0.0 mm/hr 0.14 in3.6 mm
01:43 PM 42.3°F5.7°C 33.1°F0.6°C 70% 7.6 mph SSW12.2 kmh SSW 34.2 mph55.0 kmh 29.47 in998.0 mb 0.00 in0.0 mm 0.00 in/hr0.0 mm/hr 0.14 in3.6 mm
01:44 PM 42.3°F5.7°C 33.1°F0.6°C 70% 8.3 mph SSW13.4 kmh SSW 34.2 mph55.0 kmh 29.47 in998.0 mb 0.00 in0.0 mm 0.00 in/hr0.0 mm/hr 0.14 in3.6 mm
01:45 PM 42.3°F5.7°C 33.1°F0.6°C 70% 9.2 mph SSW14.8 kmh SSW 34.2 mph55.0 kmh 29.47 in998.0 mb 0.00 in0.0 mm 0.00 in/hr0.0 mm/hr 0.14 in3.6 mm
01:46 PM 42.3°F5.7°C 32.7°F0.4°C 69% 15.2 mph SSW24.5 kmh SSW 34.2 mph55.0 kmh 29.47 in998.0 mb 0.00 in0.0 mm 0.00 in/hr0.0 mm/hr 0.14 in3.6 mm
01:47 PM 42.4°F5.8°C 32.1°F0.1°C 67% 21.3 mph SSW34.3 kmh SSW 35.8 mph57.6 kmh 29.47 in998.0 mb 0.01 in0.3 mm 0.60 in/hr15.2 mm/hr 0.15 in3.8 mm
01:48 PM 42.4°F5.8°C 32.5°F0.3°C 68% 10.7 mph SSW17.2 kmh SSW 35.8 mph57.6 kmh 29.47 in998.0 mb 0.01 in0.3 mm 0.00 in/hr0.0 mm/hr 0.15 in3.8 mm
01:49 PM 42.4°F5.8°C 32.5°F0.3°C 68% 9.8 mph S15.8 kmh S 35.8 mph57.6 kmh 29.47 in998.0 mb 0.01 in0.3 mm 0.00 in/hr0.0 mm/hr 0.15 in3.8 mm
01:50 PM 42.4°F5.8°C 32.5°F0.3°C 68% 15.9 mph S25.6 kmh S 35.8 mph57.6 kmh 29.48 in998.3 mb 0.01 in0.3 mm 0.00 in/hr0.0 mm/hr 0.15 in3.8 mm
01:51 PM 42.6°F5.9°C 32.6°F0.3°C 68% 9.8 mph S15.8 kmh S 35.8 mph57.6 kmh 29.47 in998.0 mb 0.01 in0.3 mm 0.00 in/hr0.0 mm/hr 0.15 in3.8 mm
01:52 PM 42.4°F5.8°C 32.5°F0.3°C 68% 8.3 mph S13.4 kmh S 35.8 mph57.6 kmh 29.48 in998.3 mb 0.01 in0.3 mm 0.00 in/hr0.0 mm/hr 0.15 in3.8 mm
01:53 PM 42.4°F5.8°C 32.5°F0.3°C 68% 8.3 mph SSW13.4 kmh SSW 35.8 mph57.6 kmh 29.47 in998.0 mb 0.01 in0.3 mm 0.00 in/hr0.0 mm/hr 0.15 in3.8 mm
01:54 PM 42.4°F5.8°C 32.5°F0.3°C 68% 9.2 mph SSW14.8 kmh SSW 35.8 mph57.6 kmh 29.48 in998.3 mb 0.01 in0.3 mm 0.00 in/hr0.0 mm/hr 0.15 in3.8 mm
01:55 PM 42.4°F5.8°C 32.5°F0.3°C 68% 9.2 mph SSW14.8 kmh SSW 35.8 mph57.6 kmh 29.48 in998.3 mb 0.01 in0.3 mm 0.00 in/hr0.0 mm/hr 0.15 in3.8 mm
01:56 PM 42.4°F5.8°C 32.5°F0.3°C 68% 9.2 mph SSW14.8 kmh SSW 35.8 mph57.6 kmh 29.48 in998.3 mb 0.01 in0.3 mm 0.00 in/hr0.0 mm/hr 0.15 in3.8 mm
01:57 PM 42.4°F5.8°C 32.5°F0.3°C 68% 9.2 mph SSW14.8 kmh SSW 35.8 mph57.6 kmh 29.48 in998.3 mb 0.01 in0.3 mm 0.00 in/hr0.0 mm/hr 0.15 in3.8 mm
01:58 PM 42.4°F5.8°C 32.5°F0.3°C 68% 9.2 mph SSW14.8 kmh SSW 35.8 mph57.6 kmh 29.48 in998.3 mb 0.01 in0.3 mm 0.00 in/hr0.0 mm/hr 0.15 in3.8 mm
01:59 PM 42.4°F5.8°C 32.5°F0.3°C 68% 9.2 mph SSW14.8 kmh SSW 35.8 mph57.6 kmh 29.48 in998.3 mb 0.01 in0.3 mm 0.00 in/hr0.0 mm/hr 0.15 in3.8 mm
02:00 PM 42.4°F5.8°C 32.5°F0.3°C 68% 9.2 mph SSW14.8 kmh SSW 35.8 mph57.6 kmh 29.48 in998.3 mb 0.01 in0.3 mm 0.00 in/hr0.0 mm/hr 0.15 in3.8 mm
02:01 PM 42.4°F5.8°C 32.5°F0.3°C 68% 9.2 mph SSW14.8 kmh SSW 35.8 mph57.6 kmh 29.48 in998.3 mb 0.01 in0.3 mm 0.00 in/hr0.0 mm/hr 0.15 in3.8 mm
02:02 PM 42.4°F5.8°C 32.5°F0.3°C 68% 9.2 mph SSW14.8 kmh SSW 35.8 mph57.6 kmh 29.48 in998.3 mb 0.01 in0.3 mm 0.00 in/hr0.0 mm/hr 0.15 in3.8 mm
02:03 PM 42.4°F5.8°C 32.5°F0.3°C 68% 9.2 mph SSW14.8 kmh SSW 35.8 mph57.6 kmh 29.48 in998.3 mb 0.01 in0.3 mm 0.00 in/hr0.0 mm/hr 0.15 in3.8 mm
02:04 PM 42.4°F5.8°C 32.5°F0.3°C 68% 9.2 mph SSW14.8 kmh SSW 35.8 mph57.6 kmh 29.48 in998.3 mb 0.01 in0.3 mm 0.00 in/hr0.0 mm/hr 0.15 in3.8 mm
02:05 PM 42.4°F5.8°C 32.5°F0.3°C 68% 9.2 mph SSW14.8 kmh SSW 35.8 mph57.6 kmh 29.48 in998.3 mb 0.01 in0.3 mm 0.00 in/hr0.0 mm/hr 0.15 in3.8 mm
02:06 PM 42.4°F5.8°C 32.5°F0.3°C 68% 9.2 mph SSW14.8 kmh SSW 35.8 mph57.6 kmh 29.48 in998.3 mb 0.01 in0.3 mm 0.00 in/hr0.0 mm/hr 0.15 in3.8 mm
02:07 PM 42.4°F5.8°C 32.5°F0.3°C 68% 9.2 mph SSW14.8 kmh SSW 35.8 mph57.6 kmh 29.48 in998.3 mb 0.01 in0.3 mm 0.00 in/hr0.0 mm/hr 0.15 in3.8 mm
02:08 PM 42.4°F5.8°C 32.5°F0.3°C 68% 9.2 mph SSW14.8 kmh SSW 35.8 mph57.6 kmh 29.48 in998.3 mb 0.01 in0.3 mm 0.00 in/hr0.0 mm/hr 0.15 in3.8 mm
02:09 PM 42.4°F5.8°C 32.5°F0.3°C 68% 9.2 mph SSW14.8 kmh SSW 35.8 mph57.6 kmh 29.48 in998.3 mb 0.01 in0.3 mm 0.00 in/hr0.0 mm/hr 0.15 in3.8 mm
02:10 PM 42.4°F5.8°C 32.5°F0.3°C 68% 9.2 mph SSW14.8 kmh SSW 35.8 mph57.6 kmh 29.48 in998.3 mb 0.01 in0.3 mm 0.00 in/hr0.0 mm/hr 0.15 in3.8 mm
02:24 PM 41.2°F5.1°C 34.2°F1.2°C 76% 6.9 mph SW11.1 kmh SW 13.6 mph21.9 kmh 29.51 in999.3 mb 0.01 in0.3 mm 0.00 in/hr0.0 mm/hr 0.15 in3.8 mm
02:34 PM 41.2°F5.1°C 33.5°F0.8°C 74% 7.6 mph S12.2 kmh S 18.3 mph29.5 kmh 29.52 in999.7 mb 0.01 in0.3 mm 0.00 in/hr0.0 mm/hr 0.15 in3.8 mm
02:36 PM 41.0°F5.0°C 34.3°F1.3°C 77% 12.1 mph SW19.5 kmh SW 22.8 mph36.7 kmh 29.50 in999.0 mb 0.01 in0.3 mm 0.00 in/hr0.0 mm/hr 0.15 in3.8 mm
02:40 PM 41.4°F5.2°C 33.4°F0.8°C 73% 8.3 mph S13.4 kmh S 20.6 mph33.2 kmh 29.52 in999.7 mb 0.00 in0.0 mm 0.00 in/hr0.0 mm/hr 0.15 in3.8 mm
02:42 PM 41.4°F5.2°C 33.4°F0.8°C 73% 8.3 mph S13.4 kmh S 20.6 mph33.2 kmh 29.52 in999.7 mb 0.00 in0.0 mm 0.00 in/hr0.0 mm/hr 0.15 in3.8 mm
02:44 PM 41.2°F5.1°C 33.5°F0.8°C 74% 6.9 mph S11.1 kmh S 20.6 mph33.2 kmh 29.52 in999.7 mb 0.00 in0.0 mm 0.00 in/hr0.0 mm/hr 0.15 in3.8 mm
02:46 PM 41.2°F5.1°C 33.2°F0.7°C 73% 9.8 mph S15.8 kmh S 20.6 mph33.2 kmh 29.52 in999.7 mb 0.00 in0.0 mm 0.00 in/hr0.0 mm/hr 0.15 in3.8 mm
02:48 PM 41.4°F5.2°C 33.0°F0.6°C 72% 14.5 mph S23.3 kmh S 32.0 mph51.5 kmh 29.52 in999.7 mb 0.00 in0.0 mm 0.00 in/hr0.0 mm/hr 0.15 in3.8 mm
02:50 PM 41.4°F5.2°C 33.0°F0.6°C 72% 6.9 mph S11.1 kmh S 32.0 mph51.5 kmh 29.52 in999.7 mb 0.00 in0.0 mm 0.00 in/hr0.0 mm/hr 0.15 in3.8 mm
02:52 PM 41.5°F5.3°C 32.1°F0.1°C 69% 13.0 mph S20.9 kmh S 32.0 mph51.5 kmh 29.52 in999.7 mb 0.00 in0.0 mm 0.00 in/hr0.0 mm/hr 0.15 in3.8 mm
02:54 PM 41.7°F5.4°C 32.3°F0.2°C 69% 13.6 mph S21.9 kmh S 32.0 mph51.5 kmh 29.53 in1000.0 mb 0.00 in0.0 mm 0.00 in/hr0.0 mm/hr 0.15 in3.8 mm
02:56 PM 41.7°F5.4°C 32.3°F0.2°C 69% 9.8 mph S15.8 kmh S 32.0 mph51.5 kmh 29.54 in1000.3 mb 0.00 in0.0 mm 0.00 in/hr0.0 mm/hr 0.15 in3.8 mm
02:58 PM 41.7°F5.4°C 32.7°F0.4°C 70% 8.3 mph S13.4 kmh S 23.5 mph37.8 kmh 29.53 in1000.0 mb 0.00 in0.0 mm 0.00 in/hr0.0 mm/hr 0.15 in3.8 mm
03:00 PM 41.7°F5.4°C 33.0°F0.6°C 71% 9.2 mph S14.8 kmh S 23.5 mph37.8 kmh 29.54 in1000.3 mb 0.00 in0.0 mm 0.00 in/hr0.0 mm/hr 0.15 in3.8 mm
03:02 PM 41.5°F5.3°C 33.2°F0.7°C 72% 8.3 mph SSW13.4 kmh SSW 23.5 mph37.8 kmh 29.54 in1000.3 mb 0.00 in0.0 mm 0.00 in/hr0.0 mm/hr 0.15 in3.8 mm
03:04 PM 41.4°F5.2°C 33.4°F0.8°C 73% 11.4 mph SSW18.3 kmh SSW 22.1 mph35.6 kmh 29.54 in1000.3 mb 0.00 in0.0 mm 0.00 in/hr0.0 mm/hr 0.15 in3.8 mm
03:06 PM 41.4°F5.2°C 33.4°F0.8°C 73% 7.6 mph SSW12.2 kmh SSW 22.1 mph35.6 kmh 29.54 in1000.3 mb 0.00 in0.0 mm 0.00 in/hr0.0 mm/hr 0.15 in3.8 mm
03:08 PM 41.2°F5.1°C 33.5°F0.8°C 74% 4.5 mph SSW7.2 kmh SSW 21.3 mph34.3 kmh 29.55 in1000.7 mb 0.00 in0.0 mm 0.00 in/hr0.0 mm/hr 0.15 in3.8 mm
03:10 PM 41.2°F5.1°C 33.2°F0.7°C 73% 9.2 mph SW14.8 kmh SW 21.3 mph34.3 kmh 29.55 in1000.7 mb 0.00 in0.0 mm 0.00 in/hr0.0 mm/hr 0.15 in3.8 mm
03:12 PM 41.4°F5.2°C 33.0°F0.6°C 72% 13.6 mph W21.9 kmh W 33.6 mph54.1 kmh 29.55 in1000.7 mb 0.00 in0.0 mm 0.00 in/hr0.0 mm/hr 0.15 in3.8 mm
03:14 PM 41.5°F5.3°C 32.5°F0.3°C 70% 13.6 mph WSW21.9 kmh WSW 33.6 mph54.1 kmh 29.55 in1000.7 mb 0.00 in0.0 mm 0.00 in/hr0.0 mm/hr 0.15 in3.8 mm
03:16 PM 41.7°F5.4°C 32.7°F0.4°C 70% 12.1 mph W19.5 kmh W 33.6 mph54.1 kmh 29.55 in1000.7 mb 0.00 in0.0 mm 0.00 in/hr0.0 mm/hr 0.15 in3.8 mm
03:18 PM 41.7°F5.4°C 32.7°F0.4°C 70% 9.8 mph WSW15.8 kmh WSW 33.6 mph54.1 kmh 29.56 in1001.0 mb 0.00 in0.0 mm 0.00 in/hr0.0 mm/hr 0.15 in3.8 mm
03:20 PM 41.5°F5.3°C 33.2°F0.7°C 72% 7.6 mph SSW12.2 kmh SSW 33.6 mph54.1 kmh 29.56 in1001.0 mb 0.00 in0.0 mm 0.00 in/hr0.0 mm/hr 0.15 in3.8 mm
03:22 PM 41.4°F5.2°C 33.7°F0.9°C 74% 13.0 mph SSW20.9 kmh SSW 29.8 mph48.0 kmh 29.56 in1001.0 mb 0.00 in0.0 mm 0.00 in/hr0.0 mm/hr 0.15 in3.8 mm
03:24 PM 40.8°F4.9°C 33.9°F1.1°C 76% 9.2 mph S14.8 kmh S 27.3 mph43.9 kmh 29.57 in1001.4 mb 0.00 in0.0 mm 0.00 in/hr0.0 mm/hr 0.15 in3.8 mm
03:26 PM 40.3°F4.6°C 33.7°F0.9°C 77% 8.3 mph S13.4 kmh S 27.3 mph43.9 kmh 29.56 in1001.0 mb 0.00 in0.0 mm 0.00 in/hr0.0 mm/hr 0.15 in3.8 mm
03:28 PM 39.7°F4.3°C 33.8°F1.0°C 79% 8.3 mph SSE13.4 kmh SSE 27.3 mph43.9 kmh 29.57 in1001.4 mb 0.00 in0.0 mm 0.00 in/hr0.0 mm/hr 0.15 in3.8 mm
03:30 PM 39.6°F4.2°C 33.6°F0.9°C 79% 9.8 mph S15.8 kmh S 27.3 mph43.9 kmh 29.57 in1001.4 mb 0.00 in0.0 mm 0.00 in/hr0.0 mm/hr 0.15 in3.8 mm
03:32 PM 39.4°F4.1°C 33.4°F0.8°C 79% 10.7 mph S17.2 kmh S 27.3 mph43.9 kmh 29.57 in1001.4 mb 0.00 in0.0 mm 0.00 in/hr0.0 mm/hr 0.15 in3.8 mm
03:34 PM 39.2°F4.0°C 33.6°F0.9°C 80% 11.4 mph S18.3 kmh S 21.3 mph34.3 kmh 29.58 in1001.7 mb 0.00 in0.0 mm 0.00 in/hr0.0 mm/hr 0.15 in3.8 mm
03:35 PM 39.2°F4.0°C 33.5°F0.8°C 80% 8.3 mph S13.4 kmh S 19.0 mph30.6 kmh 29.57 in1001.4 mb 0.00 in0.0 mm 0.00 in/hr0.0 mm/hr 0.15 in3.8 mm
03:38 PM 39.2°F4.0°C 33.2°F0.7°C 79% 8.3 mph S13.4 kmh S 19.0 mph30.6 kmh 29.58 in1001.7 mb 0.00 in0.0 mm 0.00 in/hr0.0 mm/hr 0.15 in3.8 mm
03:40 PM 39.4°F4.1°C 33.1°F0.6°C 78% 10.7 mph S17.2 kmh S 26.6 mph42.8 kmh 29.58 in1001.7 mb 0.00 in0.0 mm 0.00 in/hr0.0 mm/hr 0.15 in3.8 mm
03:42 PM 39.7°F4.3°C 32.8°F0.4°C 76% 13.6 mph S21.9 kmh S 29.8 mph48.0 kmh 29.58 in1001.7 mb 0.00 in0.0 mm 0.00 in/hr0.0 mm/hr 0.15 in3.8 mm
03:44 PM 39.9°F4.4°C 33.0°F0.6°C 76% 8.3 mph S13.4 kmh S 29.8 mph48.0 kmh 29.58 in1001.7 mb 0.00 in0.0 mm 0.00 in/hr0.0 mm/hr 0.15 in3.8 mm
03:46 PM 39.9°F4.4°C 32.7°F0.4°C 75% 17.4 mph SSE28.0 kmh SSE 32.7 mph52.6 kmh 29.58 in1001.7 mb 0.00 in0.0 mm 0.00 in/hr0.0 mm/hr 0.15 in3.8 mm
03:48 PM 40.1°F4.5°C 32.8°F0.4°C 75% 11.4 mph SSE18.3 kmh SSE 32.7 mph52.6 kmh 29.59 in1002.0 mb 0.00 in0.0 mm 0.00 in/hr0.0 mm/hr 0.15 in3.8 mm
03:50 PM 40.1°F4.5°C 32.5°F0.3°C 74% 18.3 mph S29.5 kmh S 32.7 mph52.6 kmh 29.59 in1002.0 mb 0.00 in0.0 mm 0.00 in/hr0.0 mm/hr 0.15 in3.8 mm
03:52 PM 40.1°F4.5°C 32.8°F0.4°C 75% 8.3 mph SSE13.4 kmh SSE 32.7 mph52.6 kmh 29.59 in1002.0 mb 0.00 in0.0 mm 0.00 in/hr0.0 mm/hr 0.15 in3.8 mm
03:54 PM 40.1°F4.5°C 32.8°F0.4°C 75% 11.4 mph S18.3 kmh S 32.7 mph52.6 kmh 29.59 in1002.0 mb 0.00 in0.0 mm 0.00 in/hr0.0 mm/hr 0.15 in3.8 mm
03:56 PM 40.1°F4.5°C 32.8°F0.4°C 75% 7.6 mph S12.2 kmh S 28.9 mph46.5 kmh 29.60 in1002.4 mb 0.00 in0.0 mm 0.00 in/hr0.0 mm/hr 0.15 in3.8 mm
04:28 PM 41.2°F5.1°C 31.4°F-0.3°C 68% 9.2 mph SSW14.8 kmh SSW 31.1 mph50.1 kmh 29.64 in1003.7 mb 0.00 in0.0 mm 0.00 in/hr0.0 mm/hr 0.15 in3.8 mm
04:30 PM 41.2°F5.1°C 31.1°F-0.5°C 67% 7.6 mph S12.2 kmh S 31.1 mph50.1 kmh 29.64 in1003.7 mb 0.00 in0.0 mm 0.00 in/hr0.0 mm/hr 0.15 in3.8 mm
04:32 PM 41.2°F5.1°C 31.8°F-0.1°C 69% 8.3 mph S13.4 kmh S 31.1 mph50.1 kmh 29.65 in1004.1 mb 0.00 in0.0 mm 0.00 in/hr0.0 mm/hr 0.15 in3.8 mm
04:34 PM 41.2°F5.1°C 31.8°F-0.1°C 69% 8.3 mph S13.4 kmh S 31.1 mph50.1 kmh 29.65 in1004.1 mb 0.00 in0.0 mm 0.00 in/hr0.0 mm/hr 0.15 in3.8 mm
04:36 PM 41.2°F5.1°C 31.8°F-0.1°C 69% 8.3 mph SSW13.4 kmh SSW 31.1 mph50.1 kmh 29.65 in1004.1 mb 0.00 in0.0 mm 0.00 in/hr0.0 mm/hr 0.15 in3.8 mm
04:38 PM 41.0°F5.0°C 31.6°F-0.2°C 69% 7.6 mph SSW12.2 kmh SSW 30.4 mph48.9 kmh 29.65 in1004.1 mb 0.00 in0.0 mm 0.00 in/hr0.0 mm/hr 0.15 in3.8 mm
04:40 PM 41.0°F5.0°C 32.0°F0.0°C 70% 6.0 mph SSW9.7 kmh SSW 21.3 mph34.3 kmh 29.65 in1004.1 mb 0.00 in0.0 mm 0.00 in/hr0.0 mm/hr 0.15 in3.8 mm
04:42 PM 41.0°F5.0°C 32.0°F0.0°C 70% 6.0 mph SSW9.7 kmh SSW 21.3 mph34.3 kmh 29.65 in1004.1 mb 0.00 in0.0 mm 0.00 in/hr0.0 mm/hr 0.15 in3.8 mm
04:44 PM 40.8°F4.9°C 32.2°F0.1°C 71% 6.9 mph SSW11.1 kmh SSW 23.5 mph37.8 kmh 29.65 in1004.1 mb 0.00 in0.0 mm 0.00 in/hr0.0 mm/hr 0.15 in3.8 mm
04:46 PM 40.6°F4.8°C 32.0°F0.0°C 71% 10.7 mph S17.2 kmh S 23.5 mph37.8 kmh 29.66 in1004.4 mb 0.00 in0.0 mm 0.00 in/hr0.0 mm/hr 0.15 in3.8 mm
04:48 PM 40.6°F4.8°C 32.3°F0.2°C 72% 8.3 mph S13.4 kmh S 23.5 mph37.8 kmh 29.66 in1004.4 mb 0.00 in0.0 mm 0.00 in/hr0.0 mm/hr 0.15 in3.8 mm
04:50 PM 40.6°F4.8°C 32.3°F0.2°C 72% 9.8 mph SSW15.8 kmh SSW 25.9 mph41.7 kmh 29.66 in1004.4 mb 0.00 in0.0 mm 0.00 in/hr0.0 mm/hr 0.15 in3.8 mm
04:52 PM 40.6°F4.8°C 32.0°F0.0°C 71% 6.0 mph SSW9.7 kmh SSW 25.9 mph41.7 kmh 29.66 in1004.4 mb 0.00 in0.0 mm 0.00 in/hr0.0 mm/hr 0.15 in3.8 mm
04:54 PM 40.6°F4.8°C 32.0°F0.0°C 71% 11.4 mph S18.3 kmh S 25.9 mph41.7 kmh 29.66 in1004.4 mb 0.00 in0.0 mm 0.00 in/hr0.0 mm/hr 0.15 in3.8 mm
04:56 PM 40.6°F4.8°C 31.6°F-0.2°C 70% 13.6 mph S21.9 kmh S 25.9 mph41.7 kmh 29.66 in1004.4 mb 0.00 in0.0 mm 0.00 in/hr0.0 mm/hr 0.15 in3.8 mm
04:58 PM 40.6°F4.8°C 31.3°F-0.4°C 69% 13.6 mph S21.9 kmh S 25.9 mph41.7 kmh 29.67 in1004.7 mb 0.00 in0.0 mm 0.00 in/hr0.0 mm/hr 0.15 in3.8 mm
05:00 PM 40.8°F4.9°C 31.8°F-0.1°C 70% 6.9 mph S11.1 kmh S 24.4 mph39.3 kmh 29.67 in1004.7 mb 0.00 in0.0 mm 0.00 in/hr0.0 mm/hr 0.15 in3.8 mm
05:02 PM 40.8°F4.9°C 31.5°F-0.3°C 69% 10.7 mph S17.2 kmh S 34.9 mph56.2 kmh 29.67 in1004.7 mb 0.00 in0.0 mm 0.00 in/hr0.0 mm/hr 0.15 in3.8 mm
05:04 PM 40.6°F4.8°C 31.3°F-0.4°C 69% 17.4 mph S28.0 kmh S 34.9 mph56.2 kmh 29.67 in1004.7 mb 0.00 in0.0 mm 0.00 in/hr0.0 mm/hr 0.15 in3.8 mm
05:06 PM 40.8°F4.9°C 31.5°F-0.3°C 69% 15.2 mph S24.5 kmh S 34.9 mph56.2 kmh 29.67 in1004.7 mb 0.00 in0.0 mm 0.00 in/hr0.0 mm/hr 0.15 in3.8 mm
05:08 PM 40.8°F4.9°C 31.5°F-0.3°C 69% 9.8 mph S15.8 kmh S 34.9 mph56.2 kmh 29.67 in1004.7 mb 0.00 in0.0 mm 0.00 in/hr0.0 mm/hr 0.15 in3.8 mm
05:10 PM 40.8°F4.9°C 31.5°F-0.3°C 69% 14.5 mph S23.3 kmh S 34.9 mph56.2 kmh 29.68 in1005.1 mb 0.00 in0.0 mm 0.00 in/hr0.0 mm/hr 0.15 in3.8 mm
05:12 PM 40.8°F4.9°C 31.8°F-0.1°C 70% 7.6 mph SSE12.2 kmh SSE 27.3 mph43.9 kmh 29.68 in1005.1 mb 0.00 in0.0 mm 0.00 in/hr0.0 mm/hr 0.15 in3.8 mm
05:14 PM 40.8°F4.9°C 31.8°F-0.1°C 70% 6.0 mph S9.7 kmh S 30.4 mph48.9 kmh 29.68 in1005.1 mb 0.00 in0.0 mm 0.00 in/hr0.0 mm/hr 0.15 in3.8 mm
05:16 PM 40.6°F4.8°C 31.6°F-0.2°C 70% 7.6 mph S12.2 kmh S 30.4 mph48.9 kmh 29.68 in1005.1 mb 0.00 in0.0 mm 0.00 in/hr0.0 mm/hr 0.15 in3.8 mm
05:18 PM 40.6°F4.8°C 31.6°F-0.2°C 70% 12.1 mph SSW19.5 kmh SSW 30.4 mph48.9 kmh 29.69 in1005.4 mb 0.00 in0.0 mm 0.00 in/hr0.0 mm/hr 0.15 in3.8 mm
05:20 PM 40.5°F4.7°C 31.5°F-0.3°C 70% 9.2 mph SSW14.8 kmh SSW 30.4 mph48.9 kmh 29.69 in1005.4 mb 0.00 in0.0 mm 0.00 in/hr0.0 mm/hr 0.15 in3.8 mm
05:22 PM 40.5°F4.7°C 31.8°F-0.1°C 71% 9.2 mph S14.8 kmh S 30.4 mph48.9 kmh 29.69 in1005.4 mb 0.00 in0.0 mm 0.00 in/hr0.0 mm/hr 0.15 in3.8 mm
05:24 PM 40.5°F4.7°C 31.8°F-0.1°C 71% 9.2 mph SSW14.8 kmh SSW 21.3 mph34.3 kmh 29.69 in1005.4 mb 0.00 in0.0 mm 0.00 in/hr0.0 mm/hr 0.15 in3.8 mm
05:32 PM 40.3°F4.6°C 31.6°F-0.2°C 71% 6.0 mph S9.7 kmh S 19.0 mph30.6 kmh 29.70 in1005.8 mb 0.00 in0.0 mm 0.00 in/hr0.0 mm/hr 0.15 in3.8 mm
05:34 PM 40.3°F4.6°C 31.6°F-0.2°C 71% 9.2 mph SSW14.8 kmh SSW 19.0 mph30.6 kmh 29.70 in1005.8 mb 0.00 in0.0 mm 0.00 in/hr0.0 mm/hr 0.15 in3.8 mm
05:36 PM 40.3°F4.6°C 31.3°F-0.4°C 70% 6.9 mph SSW11.1 kmh SSW 17.4 mph28.0 kmh 29.70 in1005.8 mb 0.00 in0.0 mm 0.00 in/hr0.0 mm/hr 0.15 in3.8 mm
05:38 PM 40.5°F4.7°C 31.5°F-0.3°C 70% 9.2 mph SSW14.8 kmh SSW 17.4 mph28.0 kmh 29.70 in1005.8 mb 0.00 in0.0 mm 0.00 in/hr0.0 mm/hr 0.15 in3.8 mm
05:40 PM 40.3°F4.6°C 31.3°F-0.4°C 70% 7.6 mph SSW12.2 kmh SSW 17.4 mph28.0 kmh 29.71 in1006.1 mb 0.00 in0.0 mm 0.00 in/hr0.0 mm/hr 0.15 in3.8 mm
05:42 PM 40.3°F4.6°C 31.3°F-0.4°C 70% 7.6 mph SSW12.2 kmh SSW 17.4 mph28.0 kmh 29.70 in1005.8 mb 0.00 in0.0 mm 0.00 in/hr0.0 mm/hr 0.15 in3.8 mm
05:44 PM 40.3°F4.6°C 30.9°F-0.6°C 69% 7.6 mph SSW12.2 kmh SSW 15.9 mph25.6 kmh 29.70 in1005.8 mb 0.00 in0.0 mm 0.00 in/hr0.0 mm/hr 0.15 in3.8 mm
05:46 PM 40.3°F4.6°C 31.3°F-0.4°C 70% 6.9 mph SSW11.1 kmh SSW 15.9 mph25.6 kmh 29.70 in1005.8 mb 0.00 in0.0 mm 0.00 in/hr0.0 mm/hr 0.15 in3.8 mm
05:50 PM 40.1°F4.5°C 31.1°F-0.5°C 70% 5.4 mph SSW8.7 kmh SSW 15.2 mph24.5 kmh 29.71 in1006.1 mb 0.00 in0.0 mm 0.00 in/hr0.0 mm/hr 0.15 in3.8 mm
05:52 PM 40.1°F4.5°C 31.1°F-0.5°C 70% 4.5 mph S7.2 kmh S 15.2 mph24.5 kmh 29.71 in1006.1 mb 0.00 in0.0 mm 0.00 in/hr0.0 mm/hr 0.15 in3.8 mm
05:54 PM 39.9°F4.4°C 30.9°F-0.6°C 70% 5.4 mph S8.7 kmh S 15.2 mph24.5 kmh 29.71 in1006.1 mb 0.00 in0.0 mm 0.00 in/hr0.0 mm/hr 0.15 in3.8 mm
05:56 PM 39.9°F4.4°C 30.9°F-0.6°C 70% 3.1 mph S5.0 kmh S 15.9 mph25.6 kmh 29.71 in1006.1 mb 0.00 in0.0 mm 0.00 in/hr0.0 mm/hr 0.15 in3.8 mm
05:58 PM 39.9°F4.4°C 30.9°F-0.6°C 70% 5.4 mph S8.7 kmh S 15.9 mph25.6 kmh 29.71 in1006.1 mb 0.00 in0.0 mm 0.00 in/hr0.0 mm/hr 0.15 in3.8 mm
06:00 PM 39.9°F4.4°C 30.9°F-0.6°C 70% 6.9 mph S11.1 kmh S 15.9 mph25.6 kmh 29.72 in1006.4 mb 0.00 in0.0 mm 0.00 in/hr0.0 mm/hr 0.15 in3.8 mm
06:02 PM 39.9°F4.4°C 30.9°F-0.6°C 70% 8.3 mph SSW13.4 kmh SSW 15.9 mph25.6 kmh 29.72 in1006.4 mb 0.00 in0.0 mm 0.00 in/hr0.0 mm/hr 0.15 in3.8 mm
06:04 PM 39.9°F4.4°C 30.9°F-0.6°C 70% 6.0 mph SSW9.7 kmh SSW 15.9 mph25.6 kmh 29.72 in1006.4 mb 0.00 in0.0 mm 0.00 in/hr0.0 mm/hr 0.15 in3.8 mm
06:06 PM 40.1°F4.5°C 30.8°F-0.7°C 69% 7.6 mph S12.2 kmh S 17.4 mph28.0 kmh 29.72 in1006.4 mb 0.00 in0.0 mm 0.00 in/hr0.0 mm/hr 0.15 in3.8 mm
06:08 PM 40.1°F4.5°C 30.8°F-0.7°C 69% 7.6 mph S12.2 kmh S 17.4 mph28.0 kmh 29.72 in1006.4 mb 0.00 in0.0 mm 0.00 in/hr0.0 mm/hr 0.15 in3.8 mm
06:10 PM 40.1°F4.5°C 30.8°F-0.7°C 69% 3.8 mph S6.1 kmh S 17.4 mph28.0 kmh 29.72 in1006.4 mb 0.00 in0.0 mm 0.00 in/hr0.0 mm/hr 0.15 in3.8 mm
06:12 PM 40.1°F4.5°C 31.1°F-0.5°C 70% 7.6 mph S12.2 kmh S 17.4 mph28.0 kmh 29.72 in1006.4 mb 0.00 in0.0 mm 0.00 in/hr0.0 mm/hr 0.15 in3.8 mm
06:14 PM 40.1°F4.5°C 31.1°F-0.5°C 70% 7.6 mph S12.2 kmh S 17.4 mph28.0 kmh 29.72 in1006.4 mb 0.00 in0.0 mm 0.00 in/hr0.0 mm/hr 0.15 in3.8 mm
06:16 PM 39.9°F4.4°C 30.9°F-0.6°C 70% 3.8 mph S6.1 kmh S 17.4 mph28.0 kmh 29.72 in1006.4 mb 0.00 in0.0 mm 0.00 in/hr0.0 mm/hr 0.15 in3.8 mm
06:18 PM 39.9°F4.4°C 30.9°F-0.6°C 70% 8.3 mph S13.4 kmh S 17.4 mph28.0 kmh 29.72 in1006.4 mb 0.00 in0.0 mm 0.00 in/hr0.0 mm/hr 0.15 in3.8 mm
06:20 PM 39.9°F4.4°C 30.9°F-0.6°C 70% 5.4 mph S8.7 kmh S 17.4 mph28.0 kmh 29.73 in1006.8 mb 0.00 in0.0 mm 0.00 in/hr0.0 mm/hr 0.15 in3.8 mm
06:22 PM 39.9°F4.4°C 30.9°F-0.6°C 70% 6.9 mph SSW11.1 kmh SSW 17.4 mph28.0 kmh 29.73 in1006.8 mb 0.00 in0.0 mm 0.00 in/hr0.0 mm/hr 0.15 in3.8 mm
06:24 PM 39.7°F4.3°C 30.8°F-0.7°C 70% 4.5 mph S7.2 kmh S 15.9 mph25.6 kmh 29.73 in1006.8 mb 0.00 in0.0 mm 0.00 in/hr0.0 mm/hr 0.15 in3.8 mm
06:26 PM 39.7°F4.3°C 30.8°F-0.7°C 70% 4.5 mph SSW7.2 kmh SSW 15.9 mph25.6 kmh 29.73 in1006.8 mb 0.00 in0.0 mm 0.00 in/hr0.0 mm/hr 0.15 in3.8 mm
06:28 PM 39.7°F4.3°C 30.8°F-0.7°C 70% 8.3 mph S13.4 kmh S 16.8 mph27.0 kmh 29.73 in1006.8 mb 0.00 in0.0 mm 0.00 in/hr0.0 mm/hr 0.15 in3.8 mm
06:30 PM 39.6°F4.2°C 30.6°F-0.8°C 70% 7.6 mph S12.2 kmh S 16.8 mph27.0 kmh 29.73 in1006.8 mb 0.00 in0.0 mm 0.00 in/hr0.0 mm/hr 0.15 in3.8 mm
06:32 PM 39.6°F4.2°C 30.6°F-0.8°C 70% 5.4 mph SE8.7 kmh SE 16.8 mph27.0 kmh 29.73 in1006.8 mb 0.00 in0.0 mm 0.00 in/hr0.0 mm/hr 0.15 in3.8 mm
06:34 PM 39.4°F4.1°C 30.4°F-0.9°C 70% 7.6 mph SSE12.2 kmh SSE 16.8 mph27.0 kmh 29.73 in1006.8 mb 0.00 in0.0 mm 0.00 in/hr0.0 mm/hr 0.15 in3.8 mm
06:36 PM 39.4°F4.1°C 30.4°F-0.9°C 70% 7.6 mph S12.2 kmh S 16.8 mph27.0 kmh 29.73 in1006.8 mb 0.00 in0.0 mm 0.00 in/hr0.0 mm/hr 0.15 in3.8 mm
06:38 PM 39.4°F4.1°C 30.4°F-0.9°C 70% 7.6 mph S12.2 kmh S 16.8 mph27.0 kmh 29.73 in1006.8 mb 0.00 in0.0 mm 0.00 in/hr0.0 mm/hr 0.15 in3.8 mm
06:40 PM 39.4°F4.1°C 30.8°F-0.7°C 71% 6.9 mph S11.1 kmh S 19.0 mph30.6 kmh 29.74 in1007.1 mb 0.00 in0.0 mm 0.00 in/hr0.0 mm/hr 0.15 in3.8 mm
06:42 PM 39.2°F4.0°C 30.6°F-0.8°C 71% 9.2 mph S14.8 kmh S 19.0 mph30.6 kmh 29.73 in1006.8 mb 0.00 in0.0 mm 0.00 in/hr0.0 mm/hr 0.15 in3.8 mm
06:44 PM 39.2°F4.0°C 30.6°F-0.8°C 71% 8.3 mph SSE13.4 kmh SSE 19.0 mph30.6 kmh 29.74 in1007.1 mb 0.00 in0.0 mm 0.00 in/hr0.0 mm/hr 0.15 in3.8 mm
06:46 PM 39.2°F4.0°C 30.6°F-0.8°C 71% 8.3 mph SSE13.4 kmh SSE 19.7 mph31.7 kmh 29.73 in1006.8 mb 0.00 in0.0 mm 0.00 in/hr0.0 mm/hr 0.15 in3.8 mm
06:48 PM 39.2°F4.0°C 30.6°F-0.8°C 71% 8.3 mph SE13.4 kmh SE 19.7 mph31.7 kmh 29.74 in1007.1 mb 0.00 in0.0 mm 0.00 in/hr0.0 mm/hr 0.15 in3.8 mm
06:50 PM 39.2°F4.0°C 30.6°F-0.8°C 71% 6.0 mph SE9.7 kmh SE 19.7 mph31.7 kmh 29.74 in1007.1 mb 0.00 in0.0 mm 0.00 in/hr0.0 mm/hr 0.15 in3.8 mm
06:52 PM 39.4°F4.1°C 30.8°F-0.7°C 71% 6.0 mph SSE9.7 kmh SSE 19.7 mph31.7 kmh 29.75 in1007.5 mb 0.00 in0.0 mm 0.00 in/hr0.0 mm/hr 0.15 in3.8 mm
06:54 PM 39.4°F4.1°C 30.8°F-0.7°C 71% 6.9 mph SSE11.1 kmh SSE 19.7 mph31.7 kmh 29.74 in1007.1 mb 0.00 in0.0 mm 0.00 in/hr0.0 mm/hr 0.15 in3.8 mm
06:56 PM 39.6°F4.2°C 30.9°F-0.6°C 71% 7.6 mph S12.2 kmh S 18.3 mph29.5 kmh 29.75 in1007.5 mb 0.00 in0.0 mm 0.00 in/hr0.0 mm/hr 0.15 in3.8 mm
06:58 PM 39.6°F4.2°C 30.9°F-0.6°C 71% 6.9 mph S11.1 kmh S 17.4 mph28.0 kmh 29.75 in1007.5 mb 0.00 in0.0 mm 0.00 in/hr0.0 mm/hr 0.15 in3.8 mm
07:00 PM 39.6°F4.2°C 30.9°F-0.6°C 71% 8.3 mph S13.4 kmh S 18.3 mph29.5 kmh 29.75 in1007.5 mb 0.00 in0.0 mm 0.00 in/hr0.0 mm/hr 0.15 in3.8 mm
07:02 PM 39.6°F4.2°C 30.9°F-0.6°C 71% 6.0 mph S9.7 kmh S 18.3 mph29.5 kmh 29.75 in1007.5 mb 0.00 in0.0 mm 0.00 in/hr0.0 mm/hr 0.15 in3.8 mm
07:04 PM 39.4°F4.1°C 31.1°F-0.5°C 72% 6.9 mph SSW11.1 kmh SSW 18.3 mph29.5 kmh 29.75 in1007.5 mb 0.00 in0.0 mm 0.00 in/hr0.0 mm/hr 0.15 in3.8 mm
07:06 PM 39.4°F4.1°C 31.1°F-0.5°C 72% 9.2 mph SSW14.8 kmh SSW 19.0 mph30.6 kmh 29.76 in1007.8 mb 0.00 in0.0 mm 0.00 in/hr0.0 mm/hr 0.15 in3.8 mm
07:08 PM 39.4°F4.1°C 31.5°F-0.3°C 73% 6.9 mph SSW11.1 kmh SSW 19.0 mph30.6 kmh 29.75 in1007.5 mb 0.00 in0.0 mm 0.00 in/hr0.0 mm/hr 0.15 in3.8 mm
07:10 PM 39.4°F4.1°C 31.1°F-0.5°C 72% 6.9 mph S11.1 kmh S 19.0 mph30.6 kmh 29.75 in1007.5 mb 0.00 in0.0 mm 0.00 in/hr0.0 mm/hr 0.15 in3.8 mm
07:12 PM 39.4°F4.1°C 31.1°F-0.5°C 72% 4.5 mph S7.2 kmh S 19.0 mph30.6 kmh 29.75 in1007.5 mb 0.00 in0.0 mm 0.00 in/hr0.0 mm/hr 0.15 in3.8 mm
07:14 PM 39.4°F4.1°C 31.1°F-0.5°C 72% 7.6 mph S12.2 kmh S 19.0 mph30.6 kmh 29.76 in1007.8 mb 0.00 in0.0 mm 0.00 in/hr0.0 mm/hr 0.15 in3.8 mm
07:16 PM 39.4°F4.1°C 31.5°F-0.3°C 73% 5.4 mph SSE8.7 kmh SSE 16.8 mph27.0 kmh 29.76 in1007.8 mb 0.00 in0.0 mm 0.00 in/hr0.0 mm/hr 0.15 in3.8 mm
07:18 PM 39.4°F4.1°C 31.5°F-0.3°C 73% 5.4 mph SSE8.7 kmh SSE 15.9 mph25.6 kmh 29.77 in1008.1 mb 0.00 in0.0 mm 0.00 in/hr0.0 mm/hr 0.15 in3.8 mm
07:20 PM 39.4°F4.1°C 31.1°F-0.5°C 72% 3.8 mph S6.1 kmh S 15.9 mph25.6 kmh 29.76 in1007.8 mb 0.00 in0.0 mm 0.00 in/hr0.0 mm/hr 0.15 in3.8 mm
07:22 PM 39.4°F4.1°C 31.1°F-0.5°C 72% 6.9 mph SSW11.1 kmh SSW 17.4 mph28.0 kmh 29.77 in1008.1 mb 0.00 in0.0 mm 0.00 in/hr0.0 mm/hr 0.15 in3.8 mm
07:24 PM 39.6°F4.2°C 31.3°F-0.4°C 72% 5.4 mph SSW8.7 kmh SSW 17.4 mph28.0 kmh 29.78 in1008.5 mb 0.00 in0.0 mm 0.00 in/hr0.0 mm/hr 0.15 in3.8 mm
07:26 PM 39.6°F4.2°C 31.3°F-0.4°C 72% 5.4 mph SW8.7 kmh SW 17.4 mph28.0 kmh 29.78 in1008.5 mb 0.00 in0.0 mm 0.00 in/hr0.0 mm/hr 0.15 in3.8 mm
07:28 PM 39.6°F4.2°C 31.3°F-0.4°C 72% 8.3 mph SW13.4 kmh SW 17.4 mph28.0 kmh 29.78 in1008.5 mb 0.00 in0.0 mm 0.00 in/hr0.0 mm/hr 0.15 in3.8 mm
07:30 PM 39.6°F4.2°C 31.3°F-0.4°C 72% 4.5 mph S7.2 kmh S 17.4 mph28.0 kmh 29.78 in1008.5 mb 0.00 in0.0 mm 0.00 in/hr0.0 mm/hr 0.15 in3.8 mm
07:32 PM 39.6°F4.2°C 31.3°F-0.4°C 72% 5.4 mph S8.7 kmh S 15.2 mph24.5 kmh 29.78 in1008.5 mb 0.00 in0.0 mm 0.00 in/hr0.0 mm/hr 0.15 in3.8 mm
07:34 PM 39.6°F4.2°C 31.3°F-0.4°C 72% 3.8 mph S6.1 kmh S 15.2 mph24.5 kmh 29.78 in1008.5 mb 0.00 in0.0 mm 0.00 in/hr0.0 mm/hr 0.15 in3.8 mm
07:36 PM 39.6°F4.2°C 31.3°F-0.4°C 72% 7.6 mph S12.2 kmh S 17.4 mph28.0 kmh 29.78 in1008.5 mb 0.00 in0.0 mm 0.00 in/hr0.0 mm/hr 0.15 in3.8 mm
07:38 PM 39.6°F4.2°C 31.3°F-0.4°C 72% 5.4 mph S8.7 kmh S 17.4 mph28.0 kmh 29.79 in1008.8 mb 0.00 in0.0 mm 0.00 in/hr0.0 mm/hr 0.15 in3.8 mm
07:40 PM 39.6°F4.2°C 31.3°F-0.4°C 72% 9.2 mph S14.8 kmh S 17.4 mph28.0 kmh 29.79 in1008.8 mb 0.00 in0.0 mm 0.00 in/hr0.0 mm/hr 0.15 in3.8 mm
07:42 PM 39.7°F4.3°C 31.5°F-0.3°C 72% 5.4 mph S8.7 kmh S 17.4 mph28.0 kmh 29.78 in1008.5 mb 0.00 in0.0 mm 0.00 in/hr0.0 mm/hr 0.15 in3.8 mm
07:44 PM 39.7°F4.3°C 31.5°F-0.3°C 72% 6.0 mph S9.7 kmh S 17.4 mph28.0 kmh 29.78 in1008.5 mb 0.00 in0.0 mm 0.00 in/hr0.0 mm/hr 0.15 in3.8 mm
07:46 PM 39.7°F4.3°C 31.5°F-0.3°C 72% 7.6 mph S12.2 kmh S 17.4 mph28.0 kmh 29.80 in1009.1 mb 0.00 in0.0 mm 0.00 in/hr0.0 mm/hr 0.15 in3.8 mm
07:48 PM 39.7°F4.3°C 31.5°F-0.3°C 72% 6.0 mph SSW9.7 kmh SSW 17.4 mph28.0 kmh 29.80 in1009.1 mb 0.00 in0.0 mm 0.00 in/hr0.0 mm/hr 0.15 in3.8 mm
07:50 PM 39.6°F4.2°C 31.3°F-0.4°C 72% 3.8 mph SSW6.1 kmh SSW 17.4 mph28.0 kmh 29.80 in1009.1 mb 0.00 in0.0 mm 0.00 in/hr0.0 mm/hr 0.15 in3.8 mm
07:52 PM 39.7°F4.3°C 31.1°F-0.5°C 71% 5.4 mph SSW8.7 kmh SSW 19.7 mph31.7 kmh 29.80 in1009.1 mb 0.00 in0.0 mm 0.00 in/hr0.0 mm/hr 0.15 in3.8 mm
07:54 PM 39.6°F4.2°C 30.9°F-0.6°C 71% 5.4 mph SSW8.7 kmh SSW 19.7 mph31.7 kmh 29.80 in1009.1 mb 0.00 in0.0 mm 0.00 in/hr0.0 mm/hr 0.15 in3.8 mm
07:56 PM 39.6°F4.2°C 31.3°F-0.4°C 72% 6.0 mph SSW9.7 kmh SSW 19.7 mph31.7 kmh 29.80 in1009.1 mb 0.00 in0.0 mm 0.00 in/hr0.0 mm/hr 0.15 in3.8 mm
07:58 PM 39.6°F4.2°C 31.3°F-0.4°C 72% 7.6 mph SSW12.2 kmh SSW 19.7 mph31.7 kmh 29.80 in1009.1 mb 0.00 in0.0 mm 0.00 in/hr0.0 mm/hr 0.15 in3.8 mm
08:00 PM 39.6°F4.2°C 31.3°F-0.4°C 72% 7.6 mph S12.2 kmh S 19.7 mph31.7 kmh 29.80 in1009.1 mb 0.00 in0.0 mm 0.00 in/hr0.0 mm/hr 0.15 in3.8 mm
08:02 PM 39.4°F4.1°C 31.1°F-0.5°C 72% 3.8 mph S6.1 kmh S 18.3 mph29.5 kmh 29.80 in1009.1 mb 0.00 in0.0 mm 0.00 in/hr0.0 mm/hr 0.15 in3.8 mm
08:04 PM 39.4°F4.1°C 31.1°F-0.5°C 72% 8.3 mph S13.4 kmh S 18.3 mph29.5 kmh 29.82 in1009.8 mb 0.00 in0.0 mm 0.00 in/hr0.0 mm/hr 0.15 in3.8 mm
08:06 PM 39.4°F4.1°C 31.1°F-0.5°C 72% 6.0 mph S9.7 kmh S 18.3 mph29.5 kmh 29.81 in1009.5 mb 0.00 in0.0 mm 0.00 in/hr0.0 mm/hr 0.15 in3.8 mm
08:08 PM 39.2°F4.0°C 31.3°F-0.4°C 73% 6.0 mph S9.7 kmh S 17.4 mph28.0 kmh 29.81 in1009.5 mb 0.00 in0.0 mm 0.00 in/hr0.0 mm/hr 0.15 in3.8 mm
08:10 PM 39.2°F4.0°C 31.3°F-0.4°C 73% 5.4 mph SSW8.7 kmh SSW 17.4 mph28.0 kmh 29.81 in1009.5 mb 0.00 in0.0 mm 0.00 in/hr0.0 mm/hr 0.15 in3.8 mm
08:12 PM 39.2°F4.0°C 31.3°F-0.4°C 73% 4.5 mph SW7.2 kmh SW 17.4 mph28.0 kmh 29.82 in1009.8 mb 0.00 in0.0 mm 0.00 in/hr0.0 mm/hr 0.15 in3.8 mm
08:14 PM 39.2°F4.0°C 31.3°F-0.4°C 73% 6.0 mph SW9.7 kmh SW 17.4 mph28.0 kmh 29.82 in1009.8 mb 0.00 in0.0 mm 0.00 in/hr0.0 mm/hr 0.15 in3.8 mm
08:16 PM 39.0°F3.9°C 31.1°F-0.5°C 73% 4.5 mph SW7.2 kmh SW 17.4 mph28.0 kmh 29.82 in1009.8 mb 0.00 in0.0 mm 0.00 in/hr0.0 mm/hr 0.15 in3.8 mm
08:18 PM 39.0°F3.9°C 31.4°F-0.3°C 74% 6.9 mph SSW11.1 kmh SSW 15.2 mph24.5 kmh 29.83 in1010.2 mb 0.00 in0.0 mm 0.00 in/hr0.0 mm/hr 0.15 in3.8 mm
08:20 PM 39.0°F3.9°C 31.4°F-0.3°C 74% 6.0 mph SSW9.7 kmh SSW 15.9 mph25.6 kmh 29.83 in1010.2 mb 0.00 in0.0 mm 0.00 in/hr0.0 mm/hr 0.15 in3.8 mm
08:30 PM 39.0°F3.9°C 31.4°F-0.3°C 74% 5.4 mph SSW8.7 kmh SSW 15.9 mph25.6 kmh 29.82 in1009.8 mb 0.00 in0.0 mm 0.00 in/hr0.0 mm/hr 0.15 in3.8 mm
08:32 PM 39.2°F4.0°C 32.0°F0.0°C 75% 6.0 mph S9.7 kmh S 19.0 mph30.6 kmh 29.83 in1010.2 mb 0.00 in0.0 mm 0.00 in/hr0.0 mm/hr 0.15 in3.8 mm
08:34 PM 39.2°F4.0°C 32.0°F0.0°C 75% 8.3 mph S13.4 kmh S 19.0 mph30.6 kmh 29.83 in1010.2 mb 0.00 in0.0 mm 0.00 in/hr0.0 mm/hr 0.15 in3.8 mm
08:36 PM 36.5°F2.5°C 33.3°F0.7°C 88% Calm Calm 19.0 mph30.6 kmh 29.81 in1009.5 mb 0.00 in0.0 mm 0.00 in/hr0.0 mm/hr 0.15 in3.8 mm
08:38 PM 36.5°F2.5°C 33.3°F0.7°C 88% Calm Calm 19.0 mph30.6 kmh 29.81 in1009.5 mb 0.00 in0.0 mm 0.00 in/hr0.0 mm/hr 0.15 in3.8 mm
08:40 PM 39.6°F4.2°C 32.0°F0.0°C 74% 5.4 mph S8.7 kmh S 19.0 mph30.6 kmh 29.84 in1010.5 mb 0.00 in0.0 mm 0.00 in/hr0.0 mm/hr 0.15 in3.8 mm
08:42 PM 39.7°F4.3°C 32.1°F0.1°C 74% 8.3 mph SSE13.4 kmh SSE 19.0 mph30.6 kmh 29.84 in1010.5 mb 0.00 in0.0 mm 0.00 in/hr0.0 mm/hr 0.15 in3.8 mm
08:44 PM 39.6°F4.2°C 32.0°F0.0°C 74% 5.4 mph SSE8.7 kmh SSE 19.0 mph30.6 kmh 29.84 in1010.5 mb 0.00 in0.0 mm 0.00 in/hr0.0 mm/hr 0.15 in3.8 mm
08:46 PM 39.6°F4.2°C 32.0°F0.0°C 74% 9.2 mph SE14.8 kmh SE 22.8 mph36.7 kmh 29.84 in1010.5 mb 0.00 in0.0 mm 0.00 in/hr0.0 mm/hr 0.15 in3.8 mm
08:48 PM 39.6°F4.2°C 32.0°F0.0°C 74% 5.4 mph SSE8.7 kmh SSE 22.8 mph36.7 kmh 29.84 in1010.5 mb 0.00 in0.0 mm 0.00 in/hr0.0 mm/hr 0.15 in3.8 mm
08:50 PM 39.6°F4.2°C 32.3°F0.2°C 75% 5.4 mph SSE8.7 kmh SSE 22.8 mph36.7 kmh 29.84 in1010.5 mb 0.00 in0.0 mm 0.00 in/hr0.0 mm/hr 0.15 in3.8 mm
08:52 PM 39.6°F4.2°C 32.3°F0.2°C 75% 3.1 mph S5.0 kmh S 22.8 mph36.7 kmh 29.84 in1010.5 mb 0.00 in0.0 mm 0.00 in/hr0.0 mm/hr 0.15 in3.8 mm
08:54 PM 39.4°F4.1°C 32.1°F0.1°C 75% 6.0 mph S9.7 kmh S 22.8 mph36.7 kmh 29.84 in1010.5 mb 0.00 in0.0 mm 0.00 in/hr0.0 mm/hr 0.15 in3.8 mm
08:56 PM 39.2°F4.0°C 32.0°F0.0°C 75% 3.8 mph S6.1 kmh S 13.0 mph20.9 kmh 29.85 in1010.8 mb 0.00 in0.0 mm 0.00 in/hr0.0 mm/hr 0.15 in3.8 mm
08:58 PM 39.2°F4.0°C 32.3°F0.2°C 76% 6.9 mph S11.1 kmh S 13.6 mph21.9 kmh 29.85 in1010.8 mb 0.00 in0.0 mm 0.00 in/hr0.0 mm/hr 0.15 in3.8 mm
09:00 PM 39.0°F3.9°C 32.1°F0.1°C 76% 7.6 mph SSW12.2 kmh SSW 15.2 mph24.5 kmh 29.05 in983.7 mb 0.00 in0.0 mm 0.00 in/hr0.0 mm/hr 0.15 in3.8 mm
09:02 PM 39.0°F3.9°C 32.1°F0.1°C 76% 6.9 mph SSW11.1 kmh SSW 15.2 mph24.5 kmh 29.05 in983.7 mb 0.00 in0.0 mm 0.00 in/hr0.0 mm/hr 0.15 in3.8 mm
09:04 PM 39.0°F3.9°C 32.1°F0.1°C 76% 6.0 mph SSW9.7 kmh SSW 19.0 mph30.6 kmh 29.86 in1011.2 mb 0.00 in0.0 mm 0.00 in/hr0.0 mm/hr 0.15 in3.8 mm
09:06 PM 39.0°F3.9°C 32.1°F0.1°C 76% 5.4 mph SW8.7 kmh SW 19.0 mph30.6 kmh 29.86 in1011.2 mb 0.00 in0.0 mm 0.00 in/hr0.0 mm/hr 0.15 in3.8 mm
09:10 PM 39.0°F3.9°C 32.1°F0.1°C 76% 5.4 mph SSW8.7 kmh SSW 19.0 mph30.6 kmh 29.05 in983.7 mb 0.00 in0.0 mm 0.00 in/hr0.0 mm/hr 0.15 in3.8 mm
09:12 PM 39.0°F3.9°C 32.1°F0.1°C 76% 7.6 mph SSW12.2 kmh SSW 19.0 mph30.6 kmh 29.86 in1011.2 mb 0.00 in0.0 mm 0.00 in/hr0.0 mm/hr 0.15 in3.8 mm
09:14 PM 39.2°F4.0°C 32.3°F0.2°C 76% 7.6 mph SSW12.2 kmh SSW 13.6 mph21.9 kmh 29.86 in1011.2 mb 0.00 in0.0 mm 0.00 in/hr0.0 mm/hr 0.15 in3.8 mm
09:16 PM 39.2°F4.0°C 32.0°F0.0°C 75% 8.3 mph SW13.4 kmh SW 15.9 mph25.6 kmh 29.07 in984.4 mb 0.00 in0.0 mm 0.00 in/hr0.0 mm/hr 0.15 in3.8 mm
09:18 PM 39.4°F4.1°C 32.1°F0.1°C 75% 5.4 mph SSW8.7 kmh SSW 15.9 mph25.6 kmh 29.07 in984.4 mb 0.00 in0.0 mm 0.00 in/hr0.0 mm/hr 0.15 in3.8 mm
09:20 PM 39.6°F4.2°C 32.0°F0.0°C 74% 4.5 mph SSW7.2 kmh SSW 15.9 mph25.6 kmh 29.08 in984.8 mb 0.00 in0.0 mm 0.00 in/hr0.0 mm/hr 0.15 in3.8 mm
09:22 PM 39.7°F4.3°C 32.1°F0.1°C 74% 9.2 mph S14.8 kmh S 19.7 mph31.7 kmh 29.08 in984.8 mb 0.00 in0.0 mm 0.00 in/hr0.0 mm/hr 0.15 in3.8 mm
09:24 PM 39.7°F4.3°C 31.8°F-0.1°C 73% 6.0 mph S9.7 kmh S 19.7 mph31.7 kmh 29.07 in984.4 mb 0.00 in0.0 mm 0.00 in/hr0.0 mm/hr 0.15 in3.8 mm
09:26 PM 39.9°F4.4°C 32.0°F0.0°C 73% 8.3 mph S13.4 kmh S 19.7 mph31.7 kmh 29.89 in1012.2 mb 0.00 in0.0 mm 0.00 in/hr0.0 mm/hr 0.15 in3.8 mm
09:28 PM 39.9°F4.4°C 32.0°F0.0°C 73% 8.3 mph SSW13.4 kmh SSW 19.7 mph31.7 kmh 29.89 in1012.2 mb 0.00 in0.0 mm 0.00 in/hr0.0 mm/hr 0.15 in3.8 mm
09:30 PM 39.9°F4.4°C 31.6°F-0.2°C 72% 8.3 mph S13.4 kmh S 22.1 mph35.6 kmh 29.89 in1012.2 mb 0.00 in0.0 mm 0.00 in/hr0.0 mm/hr 0.15 in3.8 mm
09:32 PM 40.1°F4.5°C 32.2°F0.1°C 73% 7.6 mph SSW12.2 kmh SSW 22.1 mph35.6 kmh 29.89 in1012.2 mb 0.00 in0.0 mm 0.00 in/hr0.0 mm/hr 0.15 in3.8 mm
09:33 PM 40.1°F4.5°C 32.2°F0.1°C 73% 5.4 mph S8.7 kmh S 22.1 mph35.6 kmh 29.89 in1012.2 mb 0.00 in0.0 mm 0.00 in/hr0.0 mm/hr 0.15 in3.8 mm
09:34 PM 40.1°F4.5°C 31.8°F-0.1°C 72% 8.3 mph S13.4 kmh S 22.1 mph35.6 kmh 29.89 in1012.2 mb 0.00 in0.0 mm 0.00 in/hr0.0 mm/hr 0.15 in3.8 mm
09:35 PM 40.1°F4.5°C 31.8°F-0.1°C 72% 9.2 mph S14.8 kmh S 22.1 mph35.6 kmh 29.89 in1012.2 mb 1.28 in32.5 mm 76.80 in/hr1950.7 mm/hr 0.15 in3.8 mm
09:36 PM 40.1°F4.5°C 31.8°F-0.1°C 72% 6.9 mph SSE11.1 kmh SSE 22.1 mph35.6 kmh 29.89 in1012.2 mb 1.28 in32.5 mm 0.00 in/hr0.0 mm/hr 0.15 in3.8 mm
09:37 PM 40.1°F4.5°C 31.8°F-0.1°C 72% 9.2 mph SSE14.8 kmh SSE 22.1 mph35.6 kmh 29.89 in1012.2 mb 1.28 in32.5 mm 0.00 in/hr0.0 mm/hr 0.15 in3.8 mm
09:38 PM 40.1°F4.5°C 31.8°F-0.1°C 72% 8.3 mph S13.4 kmh S 25.9 mph41.7 kmh 29.90 in1012.5 mb 1.28 in32.5 mm 0.00 in/hr0.0 mm/hr 0.15 in3.8 mm
09:39 PM 40.3°F4.6°C 31.6°F-0.2°C 71% 9.8 mph S15.8 kmh S 25.9 mph41.7 kmh 29.89 in1012.2 mb 1.28 in32.5 mm 0.00 in/hr0.0 mm/hr 0.15 in3.8 mm
09:40 PM 40.3°F4.6°C 31.6°F-0.2°C 71% 8.3 mph S13.4 kmh S 25.9 mph41.7 kmh 29.89 in1012.2 mb 1.28 in32.5 mm 0.00 in/hr0.0 mm/hr 0.15 in3.8 mm
09:42 PM 40.3°F4.6°C 31.6°F-0.2°C 71% 8.3 mph S13.4 kmh S 25.9 mph41.7 kmh 29.89 in1012.2 mb 1.28 in32.5 mm 0.00 in/hr0.0 mm/hr 0.15 in3.8 mm
09:43 PM 40.3°F4.6°C 32.0°F0.0°C 72% 6.9 mph SSW11.1 kmh SSW 18.3 mph29.5 kmh 29.09 in985.1 mb 0.00 in0.0 mm 0.00 in/hr0.0 mm/hr 0.15 in3.8 mm
09:44 PM 40.3°F4.6°C 31.6°F-0.2°C 71% 8.3 mph SSW13.4 kmh SSW 18.3 mph29.5 kmh 29.09 in985.1 mb 0.00 in0.0 mm 0.00 in/hr0.0 mm/hr 0.15 in3.8 mm
09:45 PM 40.3°F4.6°C 32.0°F0.0°C 72% 6.0 mph SSW9.7 kmh SSW 19.0 mph30.6 kmh 29.10 in985.4 mb 0.00 in0.0 mm 0.00 in/hr0.0 mm/hr 0.15 in3.8 mm
09:46 PM 40.1°F4.5°C 31.8°F-0.1°C 72% 6.0 mph SSW9.7 kmh SSW 19.0 mph30.6 kmh 29.09 in985.1 mb 0.00 in0.0 mm 0.00 in/hr0.0 mm/hr 0.15 in3.8 mm
09:47 PM 40.1°F4.5°C 31.8°F-0.1°C 72% 5.4 mph SSE8.7 kmh SSE 18.3 mph29.5 kmh 29.90 in1012.5 mb 0.00 in0.0 mm 0.00 in/hr0.0 mm/hr 0.15 in3.8 mm
09:48 PM 40.1°F4.5°C 31.8°F-0.1°C 72% 9.2 mph SE14.8 kmh SE 18.3 mph29.5 kmh 29.90 in1012.5 mb 0.00 in0.0 mm 0.00 in/hr0.0 mm/hr 0.15 in3.8 mm
09:50 PM 40.1°F4.5°C 31.8°F-0.1°C 72% 6.0 mph SSW9.7 kmh SSW 18.3 mph29.5 kmh 29.91 in1012.9 mb 0.00 in0.0 mm 0.00 in/hr0.0 mm/hr 0.15 in3.8 mm
09:52 PM 40.1°F4.5°C 31.8°F-0.1°C 72% 6.0 mph S9.7 kmh S 11.4 mph18.3 kmh 29.90 in1012.5 mb 0.00 in0.0 mm 0.00 in/hr0.0 mm/hr 0.15 in3.8 mm
09:53 PM 40.1°F4.5°C 31.8°F-0.1°C 72% 4.5 mph SSE7.2 kmh SSE 11.4 mph18.3 kmh 29.91 in1012.9 mb 0.00 in0.0 mm 0.00 in/hr0.0 mm/hr 0.15 in3.8 mm
09:54 PM 40.1°F4.5°C 31.8°F-0.1°C 72% 6.0 mph SW9.7 kmh SW 11.4 mph18.3 kmh 29.91 in1012.9 mb 0.00 in0.0 mm 0.00 in/hr0.0 mm/hr 0.15 in3.8 mm
09:55 PM 39.9°F4.4°C 31.6°F-0.2°C 72% 6.0 mph W9.7 kmh W 13.0 mph20.9 kmh 29.91 in1012.9 mb 0.00 in0.0 mm 0.00 in/hr0.0 mm/hr 0.15 in3.8 mm
09:56 PM 39.9°F4.4°C 31.6°F-0.2°C 72% 8.3 mph SW13.4 kmh SW 15.2 mph24.5 kmh 29.91 in1012.9 mb 0.00 in0.0 mm 0.00 in/hr0.0 mm/hr 0.15 in3.8 mm
09:57 PM 39.9°F4.4°C 31.6°F-0.2°C 72% 4.5 mph SW7.2 kmh SW 15.2 mph24.5 kmh 29.91 in1012.9 mb 0.00 in0.0 mm 0.00 in/hr0.0 mm/hr 0.15 in3.8 mm
09:58 PM 39.9°F4.4°C 32.0°F0.0°C 73% 8.3 mph SSW13.4 kmh SSW 15.2 mph24.5 kmh 29.91 in1012.9 mb 0.00 in0.0 mm 0.00 in/hr0.0 mm/hr 0.15 in3.8 mm
10:00 PM 39.9°F4.4°C 32.0°F0.0°C 73% 6.9 mph S11.1 kmh S 12.1 mph19.5 kmh 29.91 in1012.9 mb 0.00 in0.0 mm 0.00 in/hr0.0 mm/hr 0.15 in3.8 mm
10:01 PM 39.9°F4.4°C 32.0°F0.0°C 73% 9.2 mph SSE14.8 kmh SSE 15.9 mph25.6 kmh 29.91 in1012.9 mb 0.00 in0.0 mm 0.00 in/hr0.0 mm/hr 0.15 in3.8 mm
10:02 PM 41.0°F5.0°C 34.3°F1.3°C 77% 12.1 mph SW19.5 kmh SW 22.8 mph36.7 kmh 29.50 in999.0 mb 0.01 in0.3 mm 0.60 in/hr15.2 mm/hr 0.15 in3.8 mm
10:03 PM 41.7°F5.4°C 32.3°F0.2°C 69% 12.1 mph S19.5 kmh S 20.6 mph33.2 kmh 29.53 in1000.0 mb 0.00 in0.0 mm 0.00 in/hr0.0 mm/hr 0.15 in3.8 mm
10:04 PM 39.6°F4.2°C 31.3°F-0.4°C 72% 6.0 mph S9.7 kmh S 12.1 mph19.5 kmh 29.78 in1008.5 mb 0.00 in0.0 mm 0.00 in/hr0.0 mm/hr 0.15 in3.8 mm
10:07 PM 39.9°F4.4°C 31.6°F-0.2°C 72% 9.2 mph S14.8 kmh S 22.8 mph36.7 kmh 29.91 in1012.9 mb 0.00 in0.0 mm 0.00 in/hr0.0 mm/hr 0.15 in3.8 mm
10:09 PM 40.1°F4.5°C 31.8°F-0.1°C 72% 4.5 mph SSW7.2 kmh SSW 22.8 mph36.7 kmh 29.92 in1013.2 mb 0.00 in0.0 mm 0.00 in/hr0.0 mm/hr 0.15 in3.8 mm
10:10 PM 40.1°F4.5°C 31.8°F-0.1°C 72% 6.0 mph SW9.7 kmh SW 22.8 mph36.7 kmh 29.91 in1012.9 mb 0.00 in0.0 mm 0.00 in/hr0.0 mm/hr 0.15 in3.8 mm